<?xml version="1.0" encoding="UTF-8" standalone="no" ?>
<gpx xmlns="http://www.topografix.com/GPX/1/1" xmlns:xsi="http://www.w3.org/2001/XMLSchema-instance" xsi:schemaLocation="http://www.topografix.com/GPX/1/1 http://www.topografix.com/GPX/1/1/gpx.xsd" version="1.1" creator="VisuGPX - https://www.visugpx.com">
  <metadata>
    <name>sortie du 18 /2 marche</name>
    <desc><![CDATA[Marche du 18 fevrier 2015
]]></desc>
  </metadata>
  <trk>
    <name><![CDATA[sortie du 18 /2 marche_1]]></name>
    <trkseg>
      <trkpt lat="50.40324" lon="4.16508">
        <ele>102.7</ele>
        <time>2015-02-18T12:41:51Z</time>
      </trkpt>
      <trkpt lat="50.40324" lon="4.16508">
        <ele>102.7</ele>
        <time>2015-02-18T13:00:59Z</time>
      </trkpt>
      <trkpt lat="50.40323" lon="4.16489">
        <ele>102.7</ele>
        <time>2015-02-18T13:01:18Z</time>
      </trkpt>
      <trkpt lat="50.4032" lon="4.16484">
        <ele>102.7</ele>
        <time>2015-02-18T13:01:26Z</time>
      </trkpt>
      <trkpt lat="50.40315" lon="4.16478">
        <ele>102.7</ele>
        <time>2015-02-18T13:01:34Z</time>
      </trkpt>
      <trkpt lat="50.40317" lon="4.16464">
        <ele>102.7</ele>
        <time>2015-02-18T13:01:43Z</time>
      </trkpt>
      <trkpt lat="50.40317" lon="4.16448">
        <ele>102.7</ele>
        <time>2015-02-18T13:01:51Z</time>
      </trkpt>
      <trkpt lat="50.40312" lon="4.16441">
        <ele>102.7</ele>
        <time>2015-02-18T13:01:56Z</time>
      </trkpt>
      <trkpt lat="50.40309" lon="4.16428">
        <ele>102.7</ele>
        <time>2015-02-18T13:02:00Z</time>
      </trkpt>
      <trkpt lat="50.40302" lon="4.16424">
        <ele>102.7</ele>
        <time>2015-02-18T13:02:06Z</time>
      </trkpt>
      <trkpt lat="50.40297" lon="4.16406">
        <ele>102.7</ele>
        <time>2015-02-18T13:02:12Z</time>
      </trkpt>
      <trkpt lat="50.40293" lon="4.16397">
        <ele>102.7</ele>
        <time>2015-02-18T13:02:19Z</time>
      </trkpt>
      <trkpt lat="50.40289" lon="4.16386">
        <ele>102.8</ele>
        <time>2015-02-18T13:02:24Z</time>
      </trkpt>
      <trkpt lat="50.40289" lon="4.16373">
        <ele>102.8</ele>
        <time>2015-02-18T13:02:26Z</time>
      </trkpt>
      <trkpt lat="50.40288" lon="4.16358">
        <ele>102.8</ele>
        <time>2015-02-18T13:02:30Z</time>
      </trkpt>
      <trkpt lat="50.40283" lon="4.16351">
        <ele>102.8</ele>
        <time>2015-02-18T13:02:37Z</time>
      </trkpt>
      <trkpt lat="50.40279" lon="4.16338">
        <ele>102.8</ele>
        <time>2015-02-18T13:02:42Z</time>
      </trkpt>
      <trkpt lat="50.40275" lon="4.16319">
        <ele>102.8</ele>
        <time>2015-02-18T13:02:48Z</time>
      </trkpt>
      <trkpt lat="50.40274" lon="4.16307">
        <ele>102.8</ele>
        <time>2015-02-18T13:02:50Z</time>
      </trkpt>
      <trkpt lat="50.40272" lon="4.16289">
        <ele>102.8</ele>
        <time>2015-02-18T13:02:54Z</time>
      </trkpt>
      <trkpt lat="50.40269" lon="4.16275">
        <ele>102.8</ele>
        <time>2015-02-18T13:02:57Z</time>
      </trkpt>
      <trkpt lat="50.40268" lon="4.1626">
        <ele>102.8</ele>
        <time>2015-02-18T13:03:00Z</time>
      </trkpt>
      <trkpt lat="50.40267" lon="4.16249">
        <ele>102.8</ele>
        <time>2015-02-18T13:03:02Z</time>
      </trkpt>
      <trkpt lat="50.40265" lon="4.16232">
        <ele>102.8</ele>
        <time>2015-02-18T13:03:06Z</time>
      </trkpt>
      <trkpt lat="50.40262" lon="4.16221">
        <ele>102.8</ele>
        <time>2015-02-18T13:03:10Z</time>
      </trkpt>
      <trkpt lat="50.40259" lon="4.16209">
        <ele>102.9</ele>
        <time>2015-02-18T13:03:15Z</time>
      </trkpt>
      <trkpt lat="50.40255" lon="4.16195">
        <ele>102.9</ele>
        <time>2015-02-18T13:03:24Z</time>
      </trkpt>
      <trkpt lat="50.40249" lon="4.1619">
        <ele>102.9</ele>
        <time>2015-02-18T13:03:32Z</time>
      </trkpt>
      <trkpt lat="50.40242" lon="4.16186">
        <ele>102.9</ele>
        <time>2015-02-18T13:03:39Z</time>
      </trkpt>
      <trkpt lat="50.40238" lon="4.16176">
        <ele>103</ele>
        <time>2015-02-18T13:03:43Z</time>
      </trkpt>
      <trkpt lat="50.40234" lon="4.16163">
        <ele>103</ele>
        <time>2015-02-18T13:03:48Z</time>
      </trkpt>
      <trkpt lat="50.40227" lon="4.16158">
        <ele>103</ele>
        <time>2015-02-18T13:03:55Z</time>
      </trkpt>
      <trkpt lat="50.40224" lon="4.16147">
        <ele>103.1</ele>
        <time>2015-02-18T13:04:00Z</time>
      </trkpt>
      <trkpt lat="50.40218" lon="4.1614">
        <ele>103.1</ele>
        <time>2015-02-18T13:04:08Z</time>
      </trkpt>
      <trkpt lat="50.40214" lon="4.16128">
        <ele>103.1</ele>
        <time>2015-02-18T13:04:12Z</time>
      </trkpt>
      <trkpt lat="50.40208" lon="4.16118">
        <ele>103.1</ele>
        <time>2015-02-18T13:04:16Z</time>
      </trkpt>
      <trkpt lat="50.40204" lon="4.16107">
        <ele>103.1</ele>
        <time>2015-02-18T13:04:20Z</time>
      </trkpt>
      <trkpt lat="50.402" lon="4.16095">
        <ele>103.1</ele>
        <time>2015-02-18T13:04:25Z</time>
      </trkpt>
      <trkpt lat="50.40198" lon="4.16083">
        <ele>103.1</ele>
        <time>2015-02-18T13:04:28Z</time>
      </trkpt>
      <trkpt lat="50.40192" lon="4.16073">
        <ele>103.2</ele>
        <time>2015-02-18T13:04:36Z</time>
      </trkpt>
      <trkpt lat="50.40186" lon="4.16064">
        <ele>103.2</ele>
        <time>2015-02-18T13:04:42Z</time>
      </trkpt>
      <trkpt lat="50.40182" lon="4.1605">
        <ele>103.3</ele>
        <time>2015-02-18T13:04:48Z</time>
      </trkpt>
      <trkpt lat="50.4018" lon="4.16037">
        <ele>103.3</ele>
        <time>2015-02-18T13:04:54Z</time>
      </trkpt>
      <trkpt lat="50.40179" lon="4.16024">
        <ele>103.4</ele>
        <time>2015-02-18T13:04:58Z</time>
      </trkpt>
      <trkpt lat="50.40177" lon="4.1601">
        <ele>103.4</ele>
        <time>2015-02-18T13:05:03Z</time>
      </trkpt>
      <trkpt lat="50.40173" lon="4.15998">
        <ele>103.5</ele>
        <time>2015-02-18T13:05:08Z</time>
      </trkpt>
      <trkpt lat="50.40165" lon="4.15992">
        <ele>103.5</ele>
        <time>2015-02-18T13:05:13Z</time>
      </trkpt>
      <trkpt lat="50.40162" lon="4.15978">
        <ele>103.6</ele>
        <time>2015-02-18T13:05:19Z</time>
      </trkpt>
      <trkpt lat="50.40146" lon="4.16004">
        <ele>106</ele>
        <time>2015-02-18T13:05:24Z</time>
      </trkpt>
      <trkpt lat="50.4014" lon="4.15996">
        <ele>106.2</ele>
        <time>2015-02-18T13:05:31Z</time>
      </trkpt>
      <trkpt lat="50.40133" lon="4.15989">
        <ele>106.3</ele>
        <time>2015-02-18T13:05:38Z</time>
      </trkpt>
      <trkpt lat="50.40127" lon="4.15981">
        <ele>106.4</ele>
        <time>2015-02-18T13:05:42Z</time>
      </trkpt>
      <trkpt lat="50.40122" lon="4.15968">
        <ele>106.6</ele>
        <time>2015-02-18T13:05:47Z</time>
      </trkpt>
      <trkpt lat="50.40117" lon="4.15957">
        <ele>106.8</ele>
        <time>2015-02-18T13:05:52Z</time>
      </trkpt>
      <trkpt lat="50.40112" lon="4.15947">
        <ele>107.1</ele>
        <time>2015-02-18T13:05:58Z</time>
      </trkpt>
      <trkpt lat="50.40105" lon="4.15944">
        <ele>108.3</ele>
        <time>2015-02-18T13:06:05Z</time>
      </trkpt>
      <trkpt lat="50.40098" lon="4.15934">
        <ele>108.8</ele>
        <time>2015-02-18T13:06:10Z</time>
      </trkpt>
      <trkpt lat="50.40093" lon="4.15924">
        <ele>109.5</ele>
        <time>2015-02-18T13:06:15Z</time>
      </trkpt>
      <trkpt lat="50.40089" lon="4.15914">
        <ele>110.6</ele>
        <time>2015-02-18T13:06:22Z</time>
      </trkpt>
      <trkpt lat="50.40084" lon="4.15904">
        <ele>111.2</ele>
        <time>2015-02-18T13:06:27Z</time>
      </trkpt>
      <trkpt lat="50.40079" lon="4.15895">
        <ele>111.7</ele>
        <time>2015-02-18T13:06:32Z</time>
      </trkpt>
      <trkpt lat="50.40075" lon="4.15886">
        <ele>112.3</ele>
        <time>2015-02-18T13:06:37Z</time>
      </trkpt>
      <trkpt lat="50.4007" lon="4.15876">
        <ele>112.8</ele>
        <time>2015-02-18T13:06:42Z</time>
      </trkpt>
      <trkpt lat="50.40065" lon="4.15865">
        <ele>113.6</ele>
        <time>2015-02-18T13:06:47Z</time>
      </trkpt>
      <trkpt lat="50.40061" lon="4.15855">
        <ele>115.2</ele>
        <time>2015-02-18T13:06:53Z</time>
      </trkpt>
      <trkpt lat="50.40056" lon="4.15846">
        <ele>116.2</ele>
        <time>2015-02-18T13:06:59Z</time>
      </trkpt>
      <trkpt lat="50.40051" lon="4.15836">
        <ele>117.1</ele>
        <time>2015-02-18T13:07:05Z</time>
      </trkpt>
      <trkpt lat="50.40044" lon="4.15827">
        <ele>117.8</ele>
        <time>2015-02-18T13:07:10Z</time>
      </trkpt>
      <trkpt lat="50.40039" lon="4.1582">
        <ele>118.4</ele>
        <time>2015-02-18T13:07:14Z</time>
      </trkpt>
      <trkpt lat="50.40035" lon="4.15809">
        <ele>119</ele>
        <time>2015-02-18T13:07:20Z</time>
      </trkpt>
      <trkpt lat="50.40029" lon="4.158">
        <ele>119.6</ele>
        <time>2015-02-18T13:07:25Z</time>
      </trkpt>
      <trkpt lat="50.40023" lon="4.15792">
        <ele>120.2</ele>
        <time>2015-02-18T13:07:29Z</time>
      </trkpt>
      <trkpt lat="50.40021" lon="4.15781">
        <ele>120.4</ele>
        <time>2015-02-18T13:07:33Z</time>
      </trkpt>
      <trkpt lat="50.40017" lon="4.15772">
        <ele>121</ele>
        <time>2015-02-18T13:07:37Z</time>
      </trkpt>
      <trkpt lat="50.40012" lon="4.15762">
        <ele>121.7</ele>
        <time>2015-02-18T13:07:43Z</time>
      </trkpt>
      <trkpt lat="50.40007" lon="4.15752">
        <ele>122.3</ele>
        <time>2015-02-18T13:07:49Z</time>
      </trkpt>
      <trkpt lat="50.40002" lon="4.1574">
        <ele>122.7</ele>
        <time>2015-02-18T13:07:54Z</time>
      </trkpt>
      <trkpt lat="50.39997" lon="4.15729">
        <ele>123.1</ele>
        <time>2015-02-18T13:07:59Z</time>
      </trkpt>
      <trkpt lat="50.39992" lon="4.15718">
        <ele>123.3</ele>
        <time>2015-02-18T13:08:04Z</time>
      </trkpt>
      <trkpt lat="50.39986" lon="4.15708">
        <ele>123.4</ele>
        <time>2015-02-18T13:08:10Z</time>
      </trkpt>
      <trkpt lat="50.39981" lon="4.157">
        <ele>123.2</ele>
        <time>2015-02-18T13:08:14Z</time>
      </trkpt>
      <trkpt lat="50.39976" lon="4.15691">
        <ele>123.4</ele>
        <time>2015-02-18T13:08:19Z</time>
      </trkpt>
      <trkpt lat="50.39974" lon="4.15679">
        <ele>124</ele>
        <time>2015-02-18T13:08:26Z</time>
      </trkpt>
      <trkpt lat="50.39971" lon="4.15666">
        <ele>124.3</ele>
        <time>2015-02-18T13:08:32Z</time>
      </trkpt>
      <trkpt lat="50.39968" lon="4.15654">
        <ele>124.5</ele>
        <time>2015-02-18T13:08:37Z</time>
      </trkpt>
      <trkpt lat="50.39964" lon="4.15644">
        <ele>125.2</ele>
        <time>2015-02-18T13:08:43Z</time>
      </trkpt>
      <trkpt lat="50.3996" lon="4.15633">
        <ele>126.1</ele>
        <time>2015-02-18T13:08:48Z</time>
      </trkpt>
      <trkpt lat="50.39954" lon="4.15625">
        <ele>127</ele>
        <time>2015-02-18T13:08:53Z</time>
      </trkpt>
      <trkpt lat="50.39949" lon="4.15613">
        <ele>127.5</ele>
        <time>2015-02-18T13:08:58Z</time>
      </trkpt>
      <trkpt lat="50.39945" lon="4.15601">
        <ele>126.9</ele>
        <time>2015-02-18T13:09:03Z</time>
      </trkpt>
      <trkpt lat="50.3994" lon="4.1559">
        <ele>126.4</ele>
        <time>2015-02-18T13:09:08Z</time>
      </trkpt>
      <trkpt lat="50.39936" lon="4.15579">
        <ele>126.4</ele>
        <time>2015-02-18T13:09:13Z</time>
      </trkpt>
      <trkpt lat="50.3993" lon="4.15569">
        <ele>126.2</ele>
        <time>2015-02-18T13:09:19Z</time>
      </trkpt>
      <trkpt lat="50.39925" lon="4.15562">
        <ele>126.6</ele>
        <time>2015-02-18T13:09:24Z</time>
      </trkpt>
      <trkpt lat="50.39919" lon="4.15555">
        <ele>126.9</ele>
        <time>2015-02-18T13:09:29Z</time>
      </trkpt>
      <trkpt lat="50.39916" lon="4.15544">
        <ele>127.3</ele>
        <time>2015-02-18T13:09:35Z</time>
      </trkpt>
      <trkpt lat="50.39912" lon="4.15534">
        <ele>127.5</ele>
        <time>2015-02-18T13:09:40Z</time>
      </trkpt>
      <trkpt lat="50.39907" lon="4.15525">
        <ele>127.8</ele>
        <time>2015-02-18T13:09:46Z</time>
      </trkpt>
      <trkpt lat="50.399" lon="4.15515">
        <ele>128.7</ele>
        <time>2015-02-18T13:09:52Z</time>
      </trkpt>
      <trkpt lat="50.39897" lon="4.15506">
        <ele>129.3</ele>
        <time>2015-02-18T13:09:57Z</time>
      </trkpt>
      <trkpt lat="50.39892" lon="4.15497">
        <ele>129.7</ele>
        <time>2015-02-18T13:10:01Z</time>
      </trkpt>
      <trkpt lat="50.39887" lon="4.15487">
        <ele>130.7</ele>
        <time>2015-02-18T13:10:08Z</time>
      </trkpt>
      <trkpt lat="50.39885" lon="4.15475">
        <ele>131.6</ele>
        <time>2015-02-18T13:10:15Z</time>
      </trkpt>
      <trkpt lat="50.39879" lon="4.15465">
        <ele>132.7</ele>
        <time>2015-02-18T13:10:20Z</time>
      </trkpt>
      <trkpt lat="50.39875" lon="4.15456">
        <ele>133.3</ele>
        <time>2015-02-18T13:10:25Z</time>
      </trkpt>
      <trkpt lat="50.39873" lon="4.15443">
        <ele>134.6</ele>
        <time>2015-02-18T13:10:31Z</time>
      </trkpt>
      <trkpt lat="50.39868" lon="4.15432">
        <ele>135.7</ele>
        <time>2015-02-18T13:10:37Z</time>
      </trkpt>
      <trkpt lat="50.39866" lon="4.15421">
        <ele>135.7</ele>
        <time>2015-02-18T13:10:42Z</time>
      </trkpt>
      <trkpt lat="50.3986" lon="4.15413">
        <ele>136.2</ele>
        <time>2015-02-18T13:10:46Z</time>
      </trkpt>
      <trkpt lat="50.39855" lon="4.15403">
        <ele>137.2</ele>
        <time>2015-02-18T13:10:51Z</time>
      </trkpt>
      <trkpt lat="50.3985" lon="4.15393">
        <ele>138.3</ele>
        <time>2015-02-18T13:10:56Z</time>
      </trkpt>
      <trkpt lat="50.39849" lon="4.15381">
        <ele>139</ele>
        <time>2015-02-18T13:11:02Z</time>
      </trkpt>
      <trkpt lat="50.39845" lon="4.1537">
        <ele>139.7</ele>
        <time>2015-02-18T13:11:07Z</time>
      </trkpt>
      <trkpt lat="50.39841" lon="4.1536">
        <ele>140.2</ele>
        <time>2015-02-18T13:11:11Z</time>
      </trkpt>
      <trkpt lat="50.39835" lon="4.15352">
        <ele>140.4</ele>
        <time>2015-02-18T13:11:16Z</time>
      </trkpt>
      <trkpt lat="50.39829" lon="4.15345">
        <ele>141.3</ele>
        <time>2015-02-18T13:11:21Z</time>
      </trkpt>
      <trkpt lat="50.39824" lon="4.15334">
        <ele>141.5</ele>
        <time>2015-02-18T13:11:26Z</time>
      </trkpt>
      <trkpt lat="50.3982" lon="4.15324">
        <ele>141.1</ele>
        <time>2015-02-18T13:11:30Z</time>
      </trkpt>
      <trkpt lat="50.39816" lon="4.15313">
        <ele>140.3</ele>
        <time>2015-02-18T13:11:36Z</time>
      </trkpt>
      <trkpt lat="50.39809" lon="4.15304">
        <ele>139.8</ele>
        <time>2015-02-18T13:11:41Z</time>
      </trkpt>
      <trkpt lat="50.39807" lon="4.15294">
        <ele>138.6</ele>
        <time>2015-02-18T13:11:46Z</time>
      </trkpt>
      <trkpt lat="50.39805" lon="4.15283">
        <ele>138.1</ele>
        <time>2015-02-18T13:11:49Z</time>
      </trkpt>
      <trkpt lat="50.39802" lon="4.15272">
        <ele>137.4</ele>
        <time>2015-02-18T13:11:53Z</time>
      </trkpt>
      <trkpt lat="50.39797" lon="4.1526">
        <ele>136.4</ele>
        <time>2015-02-18T13:11:58Z</time>
      </trkpt>
      <trkpt lat="50.39794" lon="4.15249">
        <ele>135.9</ele>
        <time>2015-02-18T13:12:03Z</time>
      </trkpt>
      <trkpt lat="50.39792" lon="4.15238">
        <ele>136.3</ele>
        <time>2015-02-18T13:12:10Z</time>
      </trkpt>
      <trkpt lat="50.39787" lon="4.15229">
        <ele>136.4</ele>
        <time>2015-02-18T13:12:16Z</time>
      </trkpt>
      <trkpt lat="50.39782" lon="4.15218">
        <ele>136.7</ele>
        <time>2015-02-18T13:12:22Z</time>
      </trkpt>
      <trkpt lat="50.39777" lon="4.15209">
        <ele>136.8</ele>
        <time>2015-02-18T13:12:28Z</time>
      </trkpt>
      <trkpt lat="50.39771" lon="4.15201">
        <ele>137.1</ele>
        <time>2015-02-18T13:12:33Z</time>
      </trkpt>
      <trkpt lat="50.39767" lon="4.1519">
        <ele>136.9</ele>
        <time>2015-02-18T13:12:39Z</time>
      </trkpt>
      <trkpt lat="50.39763" lon="4.15179">
        <ele>136.7</ele>
        <time>2015-02-18T13:12:44Z</time>
      </trkpt>
      <trkpt lat="50.39757" lon="4.15172">
        <ele>137.4</ele>
        <time>2015-02-18T13:12:50Z</time>
      </trkpt>
      <trkpt lat="50.39752" lon="4.15161">
        <ele>137.7</ele>
        <time>2015-02-18T13:12:56Z</time>
      </trkpt>
      <trkpt lat="50.39747" lon="4.1515">
        <ele>137.9</ele>
        <time>2015-02-18T13:13:02Z</time>
      </trkpt>
      <trkpt lat="50.39743" lon="4.15138">
        <ele>137.6</ele>
        <time>2015-02-18T13:13:07Z</time>
      </trkpt>
      <trkpt lat="50.3974" lon="4.15127">
        <ele>137.9</ele>
        <time>2015-02-18T13:13:12Z</time>
      </trkpt>
      <trkpt lat="50.39736" lon="4.15117">
        <ele>138.3</ele>
        <time>2015-02-18T13:13:18Z</time>
      </trkpt>
      <trkpt lat="50.3973" lon="4.15109">
        <ele>138.8</ele>
        <time>2015-02-18T13:13:24Z</time>
      </trkpt>
      <trkpt lat="50.39726" lon="4.15098">
        <ele>139.5</ele>
        <time>2015-02-18T13:13:29Z</time>
      </trkpt>
      <trkpt lat="50.39722" lon="4.1509">
        <ele>139.9</ele>
        <time>2015-02-18T13:13:33Z</time>
      </trkpt>
      <trkpt lat="50.39717" lon="4.1508">
        <ele>140.5</ele>
        <time>2015-02-18T13:13:37Z</time>
      </trkpt>
      <trkpt lat="50.39714" lon="4.1507">
        <ele>141.1</ele>
        <time>2015-02-18T13:13:42Z</time>
      </trkpt>
      <trkpt lat="50.39707" lon="4.15062">
        <ele>141.7</ele>
        <time>2015-02-18T13:13:47Z</time>
      </trkpt>
      <trkpt lat="50.39702" lon="4.15051">
        <ele>142.5</ele>
        <time>2015-02-18T13:13:52Z</time>
      </trkpt>
      <trkpt lat="50.39696" lon="4.15041">
        <ele>143.7</ele>
        <time>2015-02-18T13:13:58Z</time>
      </trkpt>
      <trkpt lat="50.39691" lon="4.15031">
        <ele>144.6</ele>
        <time>2015-02-18T13:14:03Z</time>
      </trkpt>
      <trkpt lat="50.39686" lon="4.15023">
        <ele>145.1</ele>
        <time>2015-02-18T13:14:07Z</time>
      </trkpt>
      <trkpt lat="50.39681" lon="4.15012">
        <ele>145.8</ele>
        <time>2015-02-18T13:14:13Z</time>
      </trkpt>
      <trkpt lat="50.39679" lon="4.15003">
        <ele>146.7</ele>
        <time>2015-02-18T13:14:20Z</time>
      </trkpt>
      <trkpt lat="50.39674" lon="4.14992">
        <ele>147.2</ele>
        <time>2015-02-18T13:14:24Z</time>
      </trkpt>
      <trkpt lat="50.39672" lon="4.1498">
        <ele>147.6</ele>
        <time>2015-02-18T13:14:28Z</time>
      </trkpt>
      <trkpt lat="50.3967" lon="4.14969">
        <ele>147.6</ele>
        <time>2015-02-18T13:14:32Z</time>
      </trkpt>
      <trkpt lat="50.39665" lon="4.14959">
        <ele>148.1</ele>
        <time>2015-02-18T13:14:36Z</time>
      </trkpt>
      <trkpt lat="50.39663" lon="4.14948">
        <ele>148.4</ele>
        <time>2015-02-18T13:14:42Z</time>
      </trkpt>
      <trkpt lat="50.39658" lon="4.14939">
        <ele>148.6</ele>
        <time>2015-02-18T13:14:46Z</time>
      </trkpt>
      <trkpt lat="50.39653" lon="4.14927">
        <ele>149.6</ele>
        <time>2015-02-18T13:14:52Z</time>
      </trkpt>
      <trkpt lat="50.3965" lon="4.14915">
        <ele>150.5</ele>
        <time>2015-02-18T13:14:58Z</time>
      </trkpt>
      <trkpt lat="50.39644" lon="4.14906">
        <ele>151.3</ele>
        <time>2015-02-18T13:15:04Z</time>
      </trkpt>
      <trkpt lat="50.39641" lon="4.14896">
        <ele>151.9</ele>
        <time>2015-02-18T13:15:09Z</time>
      </trkpt>
      <trkpt lat="50.39636" lon="4.14885">
        <ele>152.8</ele>
        <time>2015-02-18T13:15:15Z</time>
      </trkpt>
      <trkpt lat="50.39632" lon="4.14875">
        <ele>153.5</ele>
        <time>2015-02-18T13:15:20Z</time>
      </trkpt>
      <trkpt lat="50.39624" lon="4.14867">
        <ele>154.3</ele>
        <time>2015-02-18T13:15:25Z</time>
      </trkpt>
      <trkpt lat="50.39619" lon="4.14858">
        <ele>154.7</ele>
        <time>2015-02-18T13:15:30Z</time>
      </trkpt>
      <trkpt lat="50.39615" lon="4.14848">
        <ele>155.7</ele>
        <time>2015-02-18T13:15:36Z</time>
      </trkpt>
      <trkpt lat="50.39608" lon="4.14837">
        <ele>156.8</ele>
        <time>2015-02-18T13:15:42Z</time>
      </trkpt>
      <trkpt lat="50.39605" lon="4.14825">
        <ele>157.7</ele>
        <time>2015-02-18T13:15:48Z</time>
      </trkpt>
      <trkpt lat="50.39599" lon="4.14819">
        <ele>157.8</ele>
        <time>2015-02-18T13:15:53Z</time>
      </trkpt>
      <trkpt lat="50.39593" lon="4.14813">
        <ele>158.1</ele>
        <time>2015-02-18T13:15:59Z</time>
      </trkpt>
      <trkpt lat="50.39586" lon="4.14807">
        <ele>158.2</ele>
        <time>2015-02-18T13:16:04Z</time>
      </trkpt>
      <trkpt lat="50.39579" lon="4.148">
        <ele>158.4</ele>
        <time>2015-02-18T13:16:11Z</time>
      </trkpt>
      <trkpt lat="50.39572" lon="4.14793">
        <ele>158.2</ele>
        <time>2015-02-18T13:16:17Z</time>
      </trkpt>
      <trkpt lat="50.39567" lon="4.14785">
        <ele>158.3</ele>
        <time>2015-02-18T13:16:22Z</time>
      </trkpt>
      <trkpt lat="50.39564" lon="4.14774">
        <ele>158.3</ele>
        <time>2015-02-18T13:16:26Z</time>
      </trkpt>
      <trkpt lat="50.3956" lon="4.14764">
        <ele>159.4</ele>
        <time>2015-02-18T13:16:33Z</time>
      </trkpt>
      <trkpt lat="50.39558" lon="4.14751">
        <ele>160.2</ele>
        <time>2015-02-18T13:16:37Z</time>
      </trkpt>
      <trkpt lat="50.39555" lon="4.14741">
        <ele>160.7</ele>
        <time>2015-02-18T13:16:40Z</time>
      </trkpt>
      <trkpt lat="50.39551" lon="4.14728">
        <ele>160.8</ele>
        <time>2015-02-18T13:16:45Z</time>
      </trkpt>
      <trkpt lat="50.39547" lon="4.14718">
        <ele>160.6</ele>
        <time>2015-02-18T13:16:50Z</time>
      </trkpt>
      <trkpt lat="50.39542" lon="4.14709">
        <ele>160.6</ele>
        <time>2015-02-18T13:16:54Z</time>
      </trkpt>
      <trkpt lat="50.39536" lon="4.14701">
        <ele>161.1</ele>
        <time>2015-02-18T13:16:58Z</time>
      </trkpt>
      <trkpt lat="50.39533" lon="4.14686">
        <ele>160.7</ele>
        <time>2015-02-18T13:17:02Z</time>
      </trkpt>
      <trkpt lat="50.39529" lon="4.14675">
        <ele>161.2</ele>
        <time>2015-02-18T13:17:07Z</time>
      </trkpt>
      <trkpt lat="50.39527" lon="4.14664">
        <ele>161.4</ele>
        <time>2015-02-18T13:17:12Z</time>
      </trkpt>
      <trkpt lat="50.39521" lon="4.14656">
        <ele>161.7</ele>
        <time>2015-02-18T13:17:17Z</time>
      </trkpt>
      <trkpt lat="50.39518" lon="4.14645">
        <ele>161.9</ele>
        <time>2015-02-18T13:17:23Z</time>
      </trkpt>
      <trkpt lat="50.39513" lon="4.14634">
        <ele>162.1</ele>
        <time>2015-02-18T13:17:28Z</time>
      </trkpt>
      <trkpt lat="50.39511" lon="4.14624">
        <ele>160.5</ele>
        <time>2015-02-18T13:17:31Z</time>
      </trkpt>
      <trkpt lat="50.39508" lon="4.14611">
        <ele>160.5</ele>
        <time>2015-02-18T13:17:36Z</time>
      </trkpt>
      <trkpt lat="50.39508" lon="4.14598">
        <ele>159.4</ele>
        <time>2015-02-18T13:17:39Z</time>
      </trkpt>
      <trkpt lat="50.39507" lon="4.14584">
        <ele>158.6</ele>
        <time>2015-02-18T13:17:43Z</time>
      </trkpt>
      <trkpt lat="50.39502" lon="4.14573">
        <ele>157.8</ele>
        <time>2015-02-18T13:17:47Z</time>
      </trkpt>
      <trkpt lat="50.39497" lon="4.14562">
        <ele>157</ele>
        <time>2015-02-18T13:17:52Z</time>
      </trkpt>
      <trkpt lat="50.39494" lon="4.14551">
        <ele>156.8</ele>
        <time>2015-02-18T13:17:57Z</time>
      </trkpt>
      <trkpt lat="50.3947" lon="4.14556">
        <ele>153</ele>
        <time>2015-02-18T13:18:04Z</time>
      </trkpt>
      <trkpt lat="50.39464" lon="4.14548">
        <ele>150.2</ele>
        <time>2015-02-18T13:18:10Z</time>
      </trkpt>
      <trkpt lat="50.39461" lon="4.14537">
        <ele>148.3</ele>
        <time>2015-02-18T13:18:14Z</time>
      </trkpt>
      <trkpt lat="50.39459" lon="4.14526">
        <ele>146.4</ele>
        <time>2015-02-18T13:18:19Z</time>
      </trkpt>
      <trkpt lat="50.39455" lon="4.14513">
        <ele>144.2</ele>
        <time>2015-02-18T13:18:25Z</time>
      </trkpt>
      <trkpt lat="50.39451" lon="4.14503">
        <ele>141.4</ele>
        <time>2015-02-18T13:18:31Z</time>
      </trkpt>
      <trkpt lat="50.39449" lon="4.14491">
        <ele>138.9</ele>
        <time>2015-02-18T13:18:37Z</time>
      </trkpt>
      <trkpt lat="50.39443" lon="4.14481">
        <ele>137.2</ele>
        <time>2015-02-18T13:18:42Z</time>
      </trkpt>
      <trkpt lat="50.39437" lon="4.14473">
        <ele>136</ele>
        <time>2015-02-18T13:18:46Z</time>
      </trkpt>
      <trkpt lat="50.39432" lon="4.14464">
        <ele>134.6</ele>
        <time>2015-02-18T13:18:50Z</time>
      </trkpt>
      <trkpt lat="50.39429" lon="4.14451">
        <ele>133</ele>
        <time>2015-02-18T13:18:56Z</time>
      </trkpt>
      <trkpt lat="50.39423" lon="4.14443">
        <ele>132</ele>
        <time>2015-02-18T13:19:01Z</time>
      </trkpt>
      <trkpt lat="50.3942" lon="4.14433">
        <ele>131.3</ele>
        <time>2015-02-18T13:19:07Z</time>
      </trkpt>
      <trkpt lat="50.39415" lon="4.14423">
        <ele>130.7</ele>
        <time>2015-02-18T13:19:11Z</time>
      </trkpt>
      <trkpt lat="50.3941" lon="4.14414">
        <ele>130.6</ele>
        <time>2015-02-18T13:19:16Z</time>
      </trkpt>
      <trkpt lat="50.39408" lon="4.14401">
        <ele>130.5</ele>
        <time>2015-02-18T13:19:23Z</time>
      </trkpt>
      <trkpt lat="50.39404" lon="4.14392">
        <ele>130.5</ele>
        <time>2015-02-18T13:19:28Z</time>
      </trkpt>
      <trkpt lat="50.39398" lon="4.14383">
        <ele>131</ele>
        <time>2015-02-18T13:19:34Z</time>
      </trkpt>
      <trkpt lat="50.39393" lon="4.14372">
        <ele>132</ele>
        <time>2015-02-18T13:19:41Z</time>
      </trkpt>
      <trkpt lat="50.39388" lon="4.14361">
        <ele>132.6</ele>
        <time>2015-02-18T13:19:46Z</time>
      </trkpt>
      <trkpt lat="50.39384" lon="4.14351">
        <ele>132.9</ele>
        <time>2015-02-18T13:19:51Z</time>
      </trkpt>
      <trkpt lat="50.3938" lon="4.14338">
        <ele>133.1</ele>
        <time>2015-02-18T13:19:56Z</time>
      </trkpt>
      <trkpt lat="50.39376" lon="4.14328">
        <ele>133.4</ele>
        <time>2015-02-18T13:20:01Z</time>
      </trkpt>
      <trkpt lat="50.3937" lon="4.14317">
        <ele>134.3</ele>
        <time>2015-02-18T13:20:07Z</time>
      </trkpt>
      <trkpt lat="50.39367" lon="4.14307">
        <ele>135</ele>
        <time>2015-02-18T13:20:12Z</time>
      </trkpt>
      <trkpt lat="50.39363" lon="4.14297">
        <ele>135.7</ele>
        <time>2015-02-18T13:20:17Z</time>
      </trkpt>
      <trkpt lat="50.39359" lon="4.14286">
        <ele>136.9</ele>
        <time>2015-02-18T13:20:24Z</time>
      </trkpt>
      <trkpt lat="50.39354" lon="4.14276">
        <ele>138</ele>
        <time>2015-02-18T13:20:29Z</time>
      </trkpt>
      <trkpt lat="50.39349" lon="4.14267">
        <ele>139.3</ele>
        <time>2015-02-18T13:20:34Z</time>
      </trkpt>
      <trkpt lat="50.39343" lon="4.14257">
        <ele>140.4</ele>
        <time>2015-02-18T13:20:38Z</time>
      </trkpt>
      <trkpt lat="50.3934" lon="4.14244">
        <ele>140.9</ele>
        <time>2015-02-18T13:20:43Z</time>
      </trkpt>
      <trkpt lat="50.39335" lon="4.14236">
        <ele>141.4</ele>
        <time>2015-02-18T13:20:49Z</time>
      </trkpt>
      <trkpt lat="50.39334" lon="4.14224">
        <ele>142.2</ele>
        <time>2015-02-18T13:20:55Z</time>
      </trkpt>
      <trkpt lat="50.39333" lon="4.14212">
        <ele>142.9</ele>
        <time>2015-02-18T13:21:00Z</time>
      </trkpt>
      <trkpt lat="50.39327" lon="4.14203">
        <ele>143.9</ele>
        <time>2015-02-18T13:21:05Z</time>
      </trkpt>
      <trkpt lat="50.39325" lon="4.1419">
        <ele>143.7</ele>
        <time>2015-02-18T13:21:10Z</time>
      </trkpt>
      <trkpt lat="50.39318" lon="4.14184">
        <ele>143.2</ele>
        <time>2015-02-18T13:21:15Z</time>
      </trkpt>
      <trkpt lat="50.39314" lon="4.14173">
        <ele>143.2</ele>
        <time>2015-02-18T13:21:21Z</time>
      </trkpt>
      <trkpt lat="50.39308" lon="4.14166">
        <ele>143.6</ele>
        <time>2015-02-18T13:21:26Z</time>
      </trkpt>
      <trkpt lat="50.39306" lon="4.14154">
        <ele>143.4</ele>
        <time>2015-02-18T13:21:30Z</time>
      </trkpt>
      <trkpt lat="50.39301" lon="4.14144">
        <ele>143.4</ele>
        <time>2015-02-18T13:21:34Z</time>
      </trkpt>
      <trkpt lat="50.39295" lon="4.14136">
        <ele>143.5</ele>
        <time>2015-02-18T13:21:39Z</time>
      </trkpt>
      <trkpt lat="50.3929" lon="4.14127">
        <ele>143.8</ele>
        <time>2015-02-18T13:21:44Z</time>
      </trkpt>
      <trkpt lat="50.39286" lon="4.14116">
        <ele>143.8</ele>
        <time>2015-02-18T13:21:48Z</time>
      </trkpt>
      <trkpt lat="50.39282" lon="4.14107">
        <ele>143.8</ele>
        <time>2015-02-18T13:21:53Z</time>
      </trkpt>
      <trkpt lat="50.39278" lon="4.14096">
        <ele>143.6</ele>
        <time>2015-02-18T13:21:57Z</time>
      </trkpt>
      <trkpt lat="50.39275" lon="4.14085">
        <ele>143.8</ele>
        <time>2015-02-18T13:22:01Z</time>
      </trkpt>
      <trkpt lat="50.39269" lon="4.14077">
        <ele>144.4</ele>
        <time>2015-02-18T13:22:06Z</time>
      </trkpt>
      <trkpt lat="50.39263" lon="4.1407">
        <ele>144.6</ele>
        <time>2015-02-18T13:22:11Z</time>
      </trkpt>
      <trkpt lat="50.39261" lon="4.14058">
        <ele>145.4</ele>
        <time>2015-02-18T13:22:16Z</time>
      </trkpt>
      <trkpt lat="50.39258" lon="4.14047">
        <ele>145.9</ele>
        <time>2015-02-18T13:22:21Z</time>
      </trkpt>
      <trkpt lat="50.39255" lon="4.14035">
        <ele>146.3</ele>
        <time>2015-02-18T13:22:26Z</time>
      </trkpt>
      <trkpt lat="50.39249" lon="4.14024">
        <ele>146.8</ele>
        <time>2015-02-18T13:22:31Z</time>
      </trkpt>
      <trkpt lat="50.39244" lon="4.14014">
        <ele>147.2</ele>
        <time>2015-02-18T13:22:37Z</time>
      </trkpt>
      <trkpt lat="50.3924" lon="4.14005">
        <ele>147.6</ele>
        <time>2015-02-18T13:22:43Z</time>
      </trkpt>
      <trkpt lat="50.39237" lon="4.13992">
        <ele>147.7</ele>
        <time>2015-02-18T13:22:48Z</time>
      </trkpt>
      <trkpt lat="50.39233" lon="4.1398">
        <ele>147.9</ele>
        <time>2015-02-18T13:22:52Z</time>
      </trkpt>
      <trkpt lat="50.39226" lon="4.13972">
        <ele>148.1</ele>
        <time>2015-02-18T13:22:55Z</time>
      </trkpt>
      <trkpt lat="50.39221" lon="4.13962">
        <ele>148.1</ele>
        <time>2015-02-18T13:22:59Z</time>
      </trkpt>
      <trkpt lat="50.39215" lon="4.13955">
        <ele>147.8</ele>
        <time>2015-02-18T13:23:06Z</time>
      </trkpt>
      <trkpt lat="50.3921" lon="4.13945">
        <ele>147.9</ele>
        <time>2015-02-18T13:23:12Z</time>
      </trkpt>
      <trkpt lat="50.39207" lon="4.13933">
        <ele>146.8</ele>
        <time>2015-02-18T13:23:16Z</time>
      </trkpt>
      <trkpt lat="50.39202" lon="4.13923">
        <ele>146.3</ele>
        <time>2015-02-18T13:23:21Z</time>
      </trkpt>
      <trkpt lat="50.39196" lon="4.13914">
        <ele>146.2</ele>
        <time>2015-02-18T13:23:26Z</time>
      </trkpt>
      <trkpt lat="50.3919" lon="4.13904">
        <ele>146.1</ele>
        <time>2015-02-18T13:23:29Z</time>
      </trkpt>
      <trkpt lat="50.39184" lon="4.13896">
        <ele>145.4</ele>
        <time>2015-02-18T13:23:33Z</time>
      </trkpt>
      <trkpt lat="50.3918" lon="4.13885">
        <ele>145.3</ele>
        <time>2015-02-18T13:23:39Z</time>
      </trkpt>
      <trkpt lat="50.39176" lon="4.13875">
        <ele>144.9</ele>
        <time>2015-02-18T13:23:45Z</time>
      </trkpt>
      <trkpt lat="50.3917" lon="4.13868">
        <ele>145.2</ele>
        <time>2015-02-18T13:23:51Z</time>
      </trkpt>
      <trkpt lat="50.39162" lon="4.13862">
        <ele>146.2</ele>
        <time>2015-02-18T13:23:56Z</time>
      </trkpt>
      <trkpt lat="50.3916" lon="4.13851">
        <ele>146.5</ele>
        <time>2015-02-18T13:24:01Z</time>
      </trkpt>
      <trkpt lat="50.39156" lon="4.13842">
        <ele>146.6</ele>
        <time>2015-02-18T13:24:06Z</time>
      </trkpt>
      <trkpt lat="50.3915" lon="4.13831">
        <ele>146.9</ele>
        <time>2015-02-18T13:24:11Z</time>
      </trkpt>
      <trkpt lat="50.39145" lon="4.13821">
        <ele>146.8</ele>
        <time>2015-02-18T13:24:16Z</time>
      </trkpt>
      <trkpt lat="50.39142" lon="4.1381">
        <ele>146.9</ele>
        <time>2015-02-18T13:24:21Z</time>
      </trkpt>
      <trkpt lat="50.39139" lon="4.13799">
        <ele>146.7</ele>
        <time>2015-02-18T13:24:27Z</time>
      </trkpt>
      <trkpt lat="50.39136" lon="4.13787">
        <ele>146.7</ele>
        <time>2015-02-18T13:24:32Z</time>
      </trkpt>
      <trkpt lat="50.39132" lon="4.13775">
        <ele>146.7</ele>
        <time>2015-02-18T13:24:37Z</time>
      </trkpt>
      <trkpt lat="50.39129" lon="4.13763">
        <ele>146.9</ele>
        <time>2015-02-18T13:24:40Z</time>
      </trkpt>
      <trkpt lat="50.39128" lon="4.1375">
        <ele>146.8</ele>
        <time>2015-02-18T13:24:44Z</time>
      </trkpt>
      <trkpt lat="50.39123" lon="4.13739">
        <ele>146.7</ele>
        <time>2015-02-18T13:24:48Z</time>
      </trkpt>
      <trkpt lat="50.39118" lon="4.1373">
        <ele>147.1</ele>
        <time>2015-02-18T13:24:54Z</time>
      </trkpt>
      <trkpt lat="50.39112" lon="4.13722">
        <ele>147.3</ele>
        <time>2015-02-18T13:24:59Z</time>
      </trkpt>
      <trkpt lat="50.39105" lon="4.13713">
        <ele>147.7</ele>
        <time>2015-02-18T13:25:04Z</time>
      </trkpt>
      <trkpt lat="50.39101" lon="4.13703">
        <ele>147.8</ele>
        <time>2015-02-18T13:25:10Z</time>
      </trkpt>
      <trkpt lat="50.39096" lon="4.13695">
        <ele>147.5</ele>
        <time>2015-02-18T13:25:16Z</time>
      </trkpt>
      <trkpt lat="50.3909" lon="4.13685">
        <ele>147.4</ele>
        <time>2015-02-18T13:25:22Z</time>
      </trkpt>
      <trkpt lat="50.39084" lon="4.13679">
        <ele>146.9</ele>
        <time>2015-02-18T13:25:26Z</time>
      </trkpt>
      <trkpt lat="50.39082" lon="4.13667">
        <ele>146.5</ele>
        <time>2015-02-18T13:25:31Z</time>
      </trkpt>
      <trkpt lat="50.39076" lon="4.13657">
        <ele>146.3</ele>
        <time>2015-02-18T13:25:36Z</time>
      </trkpt>
      <trkpt lat="50.39074" lon="4.13643">
        <ele>145.7</ele>
        <time>2015-02-18T13:25:41Z</time>
      </trkpt>
      <trkpt lat="50.39072" lon="4.1363">
        <ele>145.1</ele>
        <time>2015-02-18T13:25:46Z</time>
      </trkpt>
      <trkpt lat="50.39069" lon="4.1362">
        <ele>144.9</ele>
        <time>2015-02-18T13:25:50Z</time>
      </trkpt>
      <trkpt lat="50.39064" lon="4.1361">
        <ele>144.4</ele>
        <time>2015-02-18T13:25:55Z</time>
      </trkpt>
      <trkpt lat="50.39058" lon="4.13604">
        <ele>143.7</ele>
        <time>2015-02-18T13:25:59Z</time>
      </trkpt>
      <trkpt lat="50.39054" lon="4.13594">
        <ele>143.7</ele>
        <time>2015-02-18T13:26:04Z</time>
      </trkpt>
      <trkpt lat="50.39049" lon="4.13582">
        <ele>143.4</ele>
        <time>2015-02-18T13:26:10Z</time>
      </trkpt>
      <trkpt lat="50.39045" lon="4.13572">
        <ele>142.9</ele>
        <time>2015-02-18T13:26:15Z</time>
      </trkpt>
      <trkpt lat="50.3904" lon="4.1356">
        <ele>143.2</ele>
        <time>2015-02-18T13:26:21Z</time>
      </trkpt>
      <trkpt lat="50.39036" lon="4.1355">
        <ele>143</ele>
        <time>2015-02-18T13:26:26Z</time>
      </trkpt>
      <trkpt lat="50.39028" lon="4.13545">
        <ele>143.2</ele>
        <time>2015-02-18T13:26:30Z</time>
      </trkpt>
      <trkpt lat="50.39021" lon="4.13538">
        <ele>143.4</ele>
        <time>2015-02-18T13:26:36Z</time>
      </trkpt>
      <trkpt lat="50.3902" lon="4.13525">
        <ele>143.2</ele>
        <time>2015-02-18T13:26:41Z</time>
      </trkpt>
      <trkpt lat="50.39016" lon="4.13516">
        <ele>142.8</ele>
        <time>2015-02-18T13:26:45Z</time>
      </trkpt>
      <trkpt lat="50.39013" lon="4.13505">
        <ele>142.5</ele>
        <time>2015-02-18T13:26:49Z</time>
      </trkpt>
      <trkpt lat="50.3901" lon="4.13495">
        <ele>141.7</ele>
        <time>2015-02-18T13:26:54Z</time>
      </trkpt>
      <trkpt lat="50.39007" lon="4.13485">
        <ele>141.9</ele>
        <time>2015-02-18T13:27:00Z</time>
      </trkpt>
      <trkpt lat="50.39" lon="4.13478">
        <ele>142.5</ele>
        <time>2015-02-18T13:27:05Z</time>
      </trkpt>
      <trkpt lat="50.38993" lon="4.13471">
        <ele>142.7</ele>
        <time>2015-02-18T13:27:10Z</time>
      </trkpt>
      <trkpt lat="50.38988" lon="4.13462">
        <ele>143.3</ele>
        <time>2015-02-18T13:27:15Z</time>
      </trkpt>
      <trkpt lat="50.38983" lon="4.13453">
        <ele>143.8</ele>
        <time>2015-02-18T13:27:20Z</time>
      </trkpt>
      <trkpt lat="50.38978" lon="4.13441">
        <ele>144.1</ele>
        <time>2015-02-18T13:27:25Z</time>
      </trkpt>
      <trkpt lat="50.38976" lon="4.13429">
        <ele>144.3</ele>
        <time>2015-02-18T13:27:30Z</time>
      </trkpt>
      <trkpt lat="50.38972" lon="4.13419">
        <ele>144.4</ele>
        <time>2015-02-18T13:27:34Z</time>
      </trkpt>
      <trkpt lat="50.38967" lon="4.13409">
        <ele>145</ele>
        <time>2015-02-18T13:27:39Z</time>
      </trkpt>
      <trkpt lat="50.38964" lon="4.13397">
        <ele>144.8</ele>
        <time>2015-02-18T13:27:43Z</time>
      </trkpt>
      <trkpt lat="50.38965" lon="4.13385">
        <ele>144.6</ele>
        <time>2015-02-18T13:27:46Z</time>
      </trkpt>
      <trkpt lat="50.38964" lon="4.13373">
        <ele>145.1</ele>
        <time>2015-02-18T13:27:50Z</time>
      </trkpt>
      <trkpt lat="50.38953" lon="4.13371">
        <ele>144.9</ele>
        <time>2015-02-18T13:27:53Z</time>
      </trkpt>
      <trkpt lat="50.38948" lon="4.13361">
        <ele>145.5</ele>
        <time>2015-02-18T13:27:58Z</time>
      </trkpt>
      <trkpt lat="50.38944" lon="4.13352">
        <ele>146.2</ele>
        <time>2015-02-18T13:28:04Z</time>
      </trkpt>
      <trkpt lat="50.38938" lon="4.13344">
        <ele>146.8</ele>
        <time>2015-02-18T13:28:09Z</time>
      </trkpt>
      <trkpt lat="50.38931" lon="4.13338">
        <ele>147.3</ele>
        <time>2015-02-18T13:28:13Z</time>
      </trkpt>
      <trkpt lat="50.38927" lon="4.13329">
        <ele>148.1</ele>
        <time>2015-02-18T13:28:19Z</time>
      </trkpt>
      <trkpt lat="50.38926" lon="4.13314">
        <ele>147.7</ele>
        <time>2015-02-18T13:28:23Z</time>
      </trkpt>
      <trkpt lat="50.38924" lon="4.13302">
        <ele>148</ele>
        <time>2015-02-18T13:28:27Z</time>
      </trkpt>
      <trkpt lat="50.3892" lon="4.13289">
        <ele>148.5</ele>
        <time>2015-02-18T13:28:32Z</time>
      </trkpt>
      <trkpt lat="50.38917" lon="4.13279">
        <ele>149</ele>
        <time>2015-02-18T13:28:37Z</time>
      </trkpt>
      <trkpt lat="50.38914" lon="4.13268">
        <ele>149.4</ele>
        <time>2015-02-18T13:28:43Z</time>
      </trkpt>
      <trkpt lat="50.38908" lon="4.13258">
        <ele>149.7</ele>
        <time>2015-02-18T13:28:48Z</time>
      </trkpt>
      <trkpt lat="50.38903" lon="4.13251">
        <ele>149.3</ele>
        <time>2015-02-18T13:28:53Z</time>
      </trkpt>
      <trkpt lat="50.38899" lon="4.1324">
        <ele>149</ele>
        <time>2015-02-18T13:28:59Z</time>
      </trkpt>
      <trkpt lat="50.38892" lon="4.13234">
        <ele>148.3</ele>
        <time>2015-02-18T13:29:04Z</time>
      </trkpt>
      <trkpt lat="50.38887" lon="4.13223">
        <ele>148.2</ele>
        <time>2015-02-18T13:29:09Z</time>
      </trkpt>
      <trkpt lat="50.38882" lon="4.13215">
        <ele>148.6</ele>
        <time>2015-02-18T13:29:14Z</time>
      </trkpt>
      <trkpt lat="50.38876" lon="4.13204">
        <ele>148.5</ele>
        <time>2015-02-18T13:29:19Z</time>
      </trkpt>
      <trkpt lat="50.38873" lon="4.13194">
        <ele>148.4</ele>
        <time>2015-02-18T13:29:26Z</time>
      </trkpt>
      <trkpt lat="50.38868" lon="4.13182">
        <ele>148.4</ele>
        <time>2015-02-18T13:29:31Z</time>
      </trkpt>
      <trkpt lat="50.38866" lon="4.13169">
        <ele>148.5</ele>
        <time>2015-02-18T13:29:37Z</time>
      </trkpt>
      <trkpt lat="50.38862" lon="4.13158">
        <ele>148</ele>
        <time>2015-02-18T13:29:42Z</time>
      </trkpt>
      <trkpt lat="50.38858" lon="4.13148">
        <ele>147.7</ele>
        <time>2015-02-18T13:29:46Z</time>
      </trkpt>
      <trkpt lat="50.38853" lon="4.1314">
        <ele>147.2</ele>
        <time>2015-02-18T13:29:50Z</time>
      </trkpt>
      <trkpt lat="50.38847" lon="4.13132">
        <ele>146.8</ele>
        <time>2015-02-18T13:29:54Z</time>
      </trkpt>
      <trkpt lat="50.38841" lon="4.13124">
        <ele>146.2</ele>
        <time>2015-02-18T13:29:59Z</time>
      </trkpt>
      <trkpt lat="50.38841" lon="4.13112">
        <ele>146.4</ele>
        <time>2015-02-18T13:30:04Z</time>
      </trkpt>
      <trkpt lat="50.38839" lon="4.13101">
        <ele>146.7</ele>
        <time>2015-02-18T13:30:10Z</time>
      </trkpt>
      <trkpt lat="50.38834" lon="4.13092">
        <ele>146.9</ele>
        <time>2015-02-18T13:30:15Z</time>
      </trkpt>
      <trkpt lat="50.38828" lon="4.13086">
        <ele>147.5</ele>
        <time>2015-02-18T13:30:20Z</time>
      </trkpt>
      <trkpt lat="50.38823" lon="4.13075">
        <ele>147.5</ele>
        <time>2015-02-18T13:30:25Z</time>
      </trkpt>
      <trkpt lat="50.38817" lon="4.13065">
        <ele>147.6</ele>
        <time>2015-02-18T13:30:30Z</time>
      </trkpt>
      <trkpt lat="50.38812" lon="4.13054">
        <ele>147.8</ele>
        <time>2015-02-18T13:30:36Z</time>
      </trkpt>
      <trkpt lat="50.38808" lon="4.13045">
        <ele>147.8</ele>
        <time>2015-02-18T13:30:41Z</time>
      </trkpt>
      <trkpt lat="50.38803" lon="4.13036">
        <ele>147.8</ele>
        <time>2015-02-18T13:30:45Z</time>
      </trkpt>
      <trkpt lat="50.38799" lon="4.13026">
        <ele>147.9</ele>
        <time>2015-02-18T13:30:52Z</time>
      </trkpt>
      <trkpt lat="50.38794" lon="4.13016">
        <ele>147.7</ele>
        <time>2015-02-18T13:30:59Z</time>
      </trkpt>
      <trkpt lat="50.38788" lon="4.13009">
        <ele>148</ele>
        <time>2015-02-18T13:31:03Z</time>
      </trkpt>
      <trkpt lat="50.38782" lon="4.13">
        <ele>148.7</ele>
        <time>2015-02-18T13:31:08Z</time>
      </trkpt>
      <trkpt lat="50.38778" lon="4.12989">
        <ele>148.9</ele>
        <time>2015-02-18T13:31:14Z</time>
      </trkpt>
      <trkpt lat="50.38774" lon="4.12979">
        <ele>148.8</ele>
        <time>2015-02-18T13:31:20Z</time>
      </trkpt>
      <trkpt lat="50.38769" lon="4.1297">
        <ele>149.6</ele>
        <time>2015-02-18T13:31:25Z</time>
      </trkpt>
      <trkpt lat="50.38765" lon="4.1296">
        <ele>150.2</ele>
        <time>2015-02-18T13:31:30Z</time>
      </trkpt>
      <trkpt lat="50.38762" lon="4.12949">
        <ele>150.7</ele>
        <time>2015-02-18T13:31:34Z</time>
      </trkpt>
      <trkpt lat="50.38757" lon="4.1294">
        <ele>151</ele>
        <time>2015-02-18T13:31:38Z</time>
      </trkpt>
      <trkpt lat="50.38755" lon="4.1293">
        <ele>152</ele>
        <time>2015-02-18T13:31:45Z</time>
      </trkpt>
      <trkpt lat="50.38748" lon="4.12921">
        <ele>152.6</ele>
        <time>2015-02-18T13:31:50Z</time>
      </trkpt>
      <trkpt lat="50.38743" lon="4.12912">
        <ele>152.6</ele>
        <time>2015-02-18T13:31:54Z</time>
      </trkpt>
      <trkpt lat="50.38738" lon="4.12903">
        <ele>152.7</ele>
        <time>2015-02-18T13:31:59Z</time>
      </trkpt>
      <trkpt lat="50.38733" lon="4.12894">
        <ele>152.9</ele>
        <time>2015-02-18T13:32:04Z</time>
      </trkpt>
      <trkpt lat="50.38725" lon="4.12888">
        <ele>153.3</ele>
        <time>2015-02-18T13:32:09Z</time>
      </trkpt>
      <trkpt lat="50.38719" lon="4.12882">
        <ele>154.2</ele>
        <time>2015-02-18T13:32:15Z</time>
      </trkpt>
      <trkpt lat="50.38714" lon="4.12874">
        <ele>155</ele>
        <time>2015-02-18T13:32:20Z</time>
      </trkpt>
      <trkpt lat="50.38708" lon="4.12867">
        <ele>155.2</ele>
        <time>2015-02-18T13:32:25Z</time>
      </trkpt>
      <trkpt lat="50.38699" lon="4.12862">
        <ele>155.8</ele>
        <time>2015-02-18T13:32:29Z</time>
      </trkpt>
      <trkpt lat="50.38693" lon="4.12853">
        <ele>155.8</ele>
        <time>2015-02-18T13:32:35Z</time>
      </trkpt>
      <trkpt lat="50.38686" lon="4.12845">
        <ele>155.8</ele>
        <time>2015-02-18T13:32:42Z</time>
      </trkpt>
      <trkpt lat="50.38682" lon="4.12835">
        <ele>155.4</ele>
        <time>2015-02-18T13:32:47Z</time>
      </trkpt>
      <trkpt lat="50.38677" lon="4.12826">
        <ele>155.6</ele>
        <time>2015-02-18T13:32:52Z</time>
      </trkpt>
      <trkpt lat="50.38673" lon="4.12816">
        <ele>155.7</ele>
        <time>2015-02-18T13:32:57Z</time>
      </trkpt>
      <trkpt lat="50.38667" lon="4.12809">
        <ele>155.8</ele>
        <time>2015-02-18T13:33:01Z</time>
      </trkpt>
      <trkpt lat="50.38662" lon="4.12809">
        <ele>156.6</ele>
        <time>2015-02-18T13:33:08Z</time>
      </trkpt>
      <trkpt lat="50.38652" lon="4.12812">
        <ele>155.6</ele>
        <time>2015-02-18T13:33:10Z</time>
      </trkpt>
      <trkpt lat="50.38648" lon="4.12809">
        <ele>156.4</ele>
        <time>2015-02-18T13:33:17Z</time>
      </trkpt>
      <trkpt lat="50.38642" lon="4.12804">
        <ele>156.9</ele>
        <time>2015-02-18T13:33:22Z</time>
      </trkpt>
      <trkpt lat="50.38635" lon="4.12801">
        <ele>157.2</ele>
        <time>2015-02-18T13:33:27Z</time>
      </trkpt>
      <trkpt lat="50.38627" lon="4.12797">
        <ele>157.7</ele>
        <time>2015-02-18T13:33:32Z</time>
      </trkpt>
      <trkpt lat="50.3862" lon="4.12791">
        <ele>157.4</ele>
        <time>2015-02-18T13:33:36Z</time>
      </trkpt>
      <trkpt lat="50.38613" lon="4.12787">
        <ele>157.6</ele>
        <time>2015-02-18T13:33:40Z</time>
      </trkpt>
      <trkpt lat="50.38608" lon="4.12782">
        <ele>157.9</ele>
        <time>2015-02-18T13:33:47Z</time>
      </trkpt>
      <trkpt lat="50.38603" lon="4.12775">
        <ele>157.8</ele>
        <time>2015-02-18T13:33:51Z</time>
      </trkpt>
      <trkpt lat="50.38597" lon="4.12768">
        <ele>157.8</ele>
        <time>2015-02-18T13:33:58Z</time>
      </trkpt>
      <trkpt lat="50.3859" lon="4.12762">
        <ele>158</ele>
        <time>2015-02-18T13:34:04Z</time>
      </trkpt>
      <trkpt lat="50.38584" lon="4.12751">
        <ele>158.1</ele>
        <time>2015-02-18T13:34:11Z</time>
      </trkpt>
      <trkpt lat="50.3858" lon="4.1274">
        <ele>157.7</ele>
        <time>2015-02-18T13:34:15Z</time>
      </trkpt>
      <trkpt lat="50.38575" lon="4.12731">
        <ele>157.6</ele>
        <time>2015-02-18T13:34:21Z</time>
      </trkpt>
      <trkpt lat="50.38568" lon="4.12723">
        <ele>158</ele>
        <time>2015-02-18T13:34:28Z</time>
      </trkpt>
      <trkpt lat="50.38559" lon="4.12721">
        <ele>158.3</ele>
        <time>2015-02-18T13:34:32Z</time>
      </trkpt>
      <trkpt lat="50.38553" lon="4.12716">
        <ele>158.8</ele>
        <time>2015-02-18T13:34:36Z</time>
      </trkpt>
      <trkpt lat="50.38545" lon="4.1271">
        <ele>159.1</ele>
        <time>2015-02-18T13:34:42Z</time>
      </trkpt>
      <trkpt lat="50.38539" lon="4.12704">
        <ele>159.2</ele>
        <time>2015-02-18T13:34:47Z</time>
      </trkpt>
      <trkpt lat="50.38532" lon="4.12699">
        <ele>159.8</ele>
        <time>2015-02-18T13:34:54Z</time>
      </trkpt>
      <trkpt lat="50.38525" lon="4.12697">
        <ele>159.4</ele>
        <time>2015-02-18T13:34:57Z</time>
      </trkpt>
      <trkpt lat="50.38518" lon="4.12692">
        <ele>159.7</ele>
        <time>2015-02-18T13:35:03Z</time>
      </trkpt>
      <trkpt lat="50.38513" lon="4.12684">
        <ele>160.5</ele>
        <time>2015-02-18T13:35:10Z</time>
      </trkpt>
      <trkpt lat="50.38506" lon="4.12678">
        <ele>160.7</ele>
        <time>2015-02-18T13:35:17Z</time>
      </trkpt>
      <trkpt lat="50.38499" lon="4.12676">
        <ele>160.8</ele>
        <time>2015-02-18T13:35:20Z</time>
      </trkpt>
      <trkpt lat="50.38489" lon="4.12672">
        <ele>161</ele>
        <time>2015-02-18T13:35:26Z</time>
      </trkpt>
      <trkpt lat="50.38481" lon="4.12667">
        <ele>161.2</ele>
        <time>2015-02-18T13:35:29Z</time>
      </trkpt>
      <trkpt lat="50.38474" lon="4.12662">
        <ele>161.4</ele>
        <time>2015-02-18T13:35:36Z</time>
      </trkpt>
      <trkpt lat="50.38467" lon="4.12659">
        <ele>161.7</ele>
        <time>2015-02-18T13:35:41Z</time>
      </trkpt>
      <trkpt lat="50.38457" lon="4.12658">
        <ele>162</ele>
        <time>2015-02-18T13:35:47Z</time>
      </trkpt>
      <trkpt lat="50.38448" lon="4.12653">
        <ele>162.6</ele>
        <time>2015-02-18T13:35:51Z</time>
      </trkpt>
      <trkpt lat="50.38445" lon="4.1265">
        <ele>163.2</ele>
        <time>2015-02-18T13:35:58Z</time>
      </trkpt>
      <trkpt lat="50.38438" lon="4.12643">
        <ele>163.7</ele>
        <time>2015-02-18T13:35:59Z</time>
      </trkpt>
      <trkpt lat="50.38434" lon="4.12635">
        <ele>164.5</ele>
        <time>2015-02-18T13:36:02Z</time>
      </trkpt>
      <trkpt lat="50.38427" lon="4.12626">
        <ele>164.4</ele>
        <time>2015-02-18T13:36:07Z</time>
      </trkpt>
      <trkpt lat="50.3842" lon="4.1262">
        <ele>163.7</ele>
        <time>2015-02-18T13:36:12Z</time>
      </trkpt>
      <trkpt lat="50.38415" lon="4.12613">
        <ele>163.4</ele>
        <time>2015-02-18T13:36:19Z</time>
      </trkpt>
      <trkpt lat="50.38407" lon="4.12607">
        <ele>164.6</ele>
        <time>2015-02-18T13:36:23Z</time>
      </trkpt>
      <trkpt lat="50.384" lon="4.12601">
        <ele>165.5</ele>
        <time>2015-02-18T13:36:27Z</time>
      </trkpt>
      <trkpt lat="50.38394" lon="4.12594">
        <ele>166.1</ele>
        <time>2015-02-18T13:36:33Z</time>
      </trkpt>
      <trkpt lat="50.38385" lon="4.12593">
        <ele>166.7</ele>
        <time>2015-02-18T13:36:38Z</time>
      </trkpt>
      <trkpt lat="50.38377" lon="4.12591">
        <ele>167.3</ele>
        <time>2015-02-18T13:36:42Z</time>
      </trkpt>
      <trkpt lat="50.38369" lon="4.12591">
        <ele>167.9</ele>
        <time>2015-02-18T13:36:48Z</time>
      </trkpt>
      <trkpt lat="50.38361" lon="4.12587">
        <ele>168.7</ele>
        <time>2015-02-18T13:36:54Z</time>
      </trkpt>
      <trkpt lat="50.38359" lon="4.12585">
        <ele>169</ele>
        <time>2015-02-18T13:37:01Z</time>
      </trkpt>
      <trkpt lat="50.38359" lon="4.12585">
        <ele>169</ele>
        <time>2015-02-18T13:37:03Z</time>
      </trkpt>
      <trkpt lat="50.38351" lon="4.12578">
        <ele>169.5</ele>
        <time>2015-02-18T13:37:04Z</time>
      </trkpt>
      <trkpt lat="50.38343" lon="4.12578">
        <ele>168.7</ele>
        <time>2015-02-18T13:37:07Z</time>
      </trkpt>
      <trkpt lat="50.38336" lon="4.12571">
        <ele>168.8</ele>
        <time>2015-02-18T13:37:13Z</time>
      </trkpt>
      <trkpt lat="50.3833" lon="4.12562">
        <ele>169.2</ele>
        <time>2015-02-18T13:37:18Z</time>
      </trkpt>
      <trkpt lat="50.38322" lon="4.12559">
        <ele>169.8</ele>
        <time>2015-02-18T13:37:22Z</time>
      </trkpt>
      <trkpt lat="50.38316" lon="4.12553">
        <ele>170.6</ele>
        <time>2015-02-18T13:37:29Z</time>
      </trkpt>
      <trkpt lat="50.3831" lon="4.12545">
        <ele>170.8</ele>
        <time>2015-02-18T13:37:35Z</time>
      </trkpt>
      <trkpt lat="50.38302" lon="4.1254">
        <ele>171</ele>
        <time>2015-02-18T13:37:38Z</time>
      </trkpt>
      <trkpt lat="50.38298" lon="4.12534">
        <ele>171.9</ele>
        <time>2015-02-18T13:37:45Z</time>
      </trkpt>
      <trkpt lat="50.3829" lon="4.1253">
        <ele>172.2</ele>
        <time>2015-02-18T13:37:51Z</time>
      </trkpt>
      <trkpt lat="50.38286" lon="4.12521">
        <ele>172.8</ele>
        <time>2015-02-18T13:37:58Z</time>
      </trkpt>
      <trkpt lat="50.3828" lon="4.12512">
        <ele>173.8</ele>
        <time>2015-02-18T13:38:05Z</time>
      </trkpt>
      <trkpt lat="50.38271" lon="4.1251">
        <ele>174.6</ele>
        <time>2015-02-18T13:38:09Z</time>
      </trkpt>
      <trkpt lat="50.38262" lon="4.12505">
        <ele>174.5</ele>
        <time>2015-02-18T13:38:14Z</time>
      </trkpt>
      <trkpt lat="50.3825" lon="4.12505">
        <ele>173.7</ele>
        <time>2015-02-18T13:38:16Z</time>
      </trkpt>
      <trkpt lat="50.3824" lon="4.12505">
        <ele>173.6</ele>
        <time>2015-02-18T13:38:18Z</time>
      </trkpt>
      <trkpt lat="50.38233" lon="4.12503">
        <ele>173.6</ele>
        <time>2015-02-18T13:38:21Z</time>
      </trkpt>
      <trkpt lat="50.38226" lon="4.12497">
        <ele>173.9</ele>
        <time>2015-02-18T13:38:27Z</time>
      </trkpt>
      <trkpt lat="50.38218" lon="4.12496">
        <ele>174.2</ele>
        <time>2015-02-18T13:38:31Z</time>
      </trkpt>
      <trkpt lat="50.38209" lon="4.12496">
        <ele>174.1</ele>
        <time>2015-02-18T13:38:35Z</time>
      </trkpt>
      <trkpt lat="50.38199" lon="4.12495">
        <ele>173.9</ele>
        <time>2015-02-18T13:38:39Z</time>
      </trkpt>
      <trkpt lat="50.38194" lon="4.12486">
        <ele>174.4</ele>
        <time>2015-02-18T13:38:45Z</time>
      </trkpt>
      <trkpt lat="50.38188" lon="4.12478">
        <ele>175</ele>
        <time>2015-02-18T13:38:51Z</time>
      </trkpt>
      <trkpt lat="50.38181" lon="4.12477">
        <ele>175.3</ele>
        <time>2015-02-18T13:38:55Z</time>
      </trkpt>
      <trkpt lat="50.38174" lon="4.12472">
        <ele>176.2</ele>
        <time>2015-02-18T13:39:01Z</time>
      </trkpt>
      <trkpt lat="50.38169" lon="4.12465">
        <ele>176.5</ele>
        <time>2015-02-18T13:39:08Z</time>
      </trkpt>
      <trkpt lat="50.38162" lon="4.12463">
        <ele>177.4</ele>
        <time>2015-02-18T13:39:15Z</time>
      </trkpt>
      <trkpt lat="50.38153" lon="4.12457">
        <ele>177.6</ele>
        <time>2015-02-18T13:39:21Z</time>
      </trkpt>
      <trkpt lat="50.38146" lon="4.12456">
        <ele>177.5</ele>
        <time>2015-02-18T13:39:26Z</time>
      </trkpt>
      <trkpt lat="50.38142" lon="4.12446">
        <ele>177.7</ele>
        <time>2015-02-18T13:39:32Z</time>
      </trkpt>
      <trkpt lat="50.38136" lon="4.12439">
        <ele>177.6</ele>
        <time>2015-02-18T13:39:38Z</time>
      </trkpt>
      <trkpt lat="50.38126" lon="4.12435">
        <ele>178.5</ele>
        <time>2015-02-18T13:39:42Z</time>
      </trkpt>
      <trkpt lat="50.38117" lon="4.1243">
        <ele>179.4</ele>
        <time>2015-02-18T13:39:45Z</time>
      </trkpt>
      <trkpt lat="50.38109" lon="4.12425">
        <ele>180.2</ele>
        <time>2015-02-18T13:39:48Z</time>
      </trkpt>
      <trkpt lat="50.381" lon="4.12427">
        <ele>179.9</ele>
        <time>2015-02-18T13:39:51Z</time>
      </trkpt>
      <trkpt lat="50.38091" lon="4.12422">
        <ele>180.3</ele>
        <time>2015-02-18T13:39:55Z</time>
      </trkpt>
      <trkpt lat="50.38083" lon="4.12419">
        <ele>180</ele>
        <time>2015-02-18T13:39:58Z</time>
      </trkpt>
      <trkpt lat="50.3808" lon="4.1241">
        <ele>179.6</ele>
        <time>2015-02-18T13:40:05Z</time>
      </trkpt>
      <trkpt lat="50.38073" lon="4.12408">
        <ele>180.4</ele>
        <time>2015-02-18T13:40:12Z</time>
      </trkpt>
      <trkpt lat="50.38065" lon="4.12402">
        <ele>180.8</ele>
        <time>2015-02-18T13:40:19Z</time>
      </trkpt>
      <trkpt lat="50.38056" lon="4.12399">
        <ele>180.3</ele>
        <time>2015-02-18T13:40:22Z</time>
      </trkpt>
      <trkpt lat="50.38049" lon="4.12393">
        <ele>180.7</ele>
        <time>2015-02-18T13:40:25Z</time>
      </trkpt>
      <trkpt lat="50.38041" lon="4.12388">
        <ele>181.1</ele>
        <time>2015-02-18T13:40:31Z</time>
      </trkpt>
      <trkpt lat="50.38033" lon="4.12387">
        <ele>181</ele>
        <time>2015-02-18T13:40:34Z</time>
      </trkpt>
      <trkpt lat="50.38025" lon="4.12381">
        <ele>181.8</ele>
        <time>2015-02-18T13:40:39Z</time>
      </trkpt>
      <trkpt lat="50.38018" lon="4.12374">
        <ele>182.7</ele>
        <time>2015-02-18T13:40:43Z</time>
      </trkpt>
      <trkpt lat="50.38018" lon="4.12365">
        <ele>183.1</ele>
        <time>2015-02-18T13:40:50Z</time>
      </trkpt>
      <trkpt lat="50.38012" lon="4.1236">
        <ele>183</ele>
        <time>2015-02-18T13:40:57Z</time>
      </trkpt>
      <trkpt lat="50.38003" lon="4.12356">
        <ele>182.7</ele>
        <time>2015-02-18T13:41:02Z</time>
      </trkpt>
      <trkpt lat="50.37995" lon="4.12355">
        <ele>182.3</ele>
        <time>2015-02-18T13:41:05Z</time>
      </trkpt>
      <trkpt lat="50.37988" lon="4.12346">
        <ele>182.7</ele>
        <time>2015-02-18T13:41:10Z</time>
      </trkpt>
      <trkpt lat="50.37981" lon="4.12341">
        <ele>182.4</ele>
        <time>2015-02-18T13:41:15Z</time>
      </trkpt>
      <trkpt lat="50.37975" lon="4.12334">
        <ele>182.1</ele>
        <time>2015-02-18T13:41:21Z</time>
      </trkpt>
      <trkpt lat="50.37967" lon="4.12329">
        <ele>182.7</ele>
        <time>2015-02-18T13:41:25Z</time>
      </trkpt>
      <trkpt lat="50.37959" lon="4.12327">
        <ele>183</ele>
        <time>2015-02-18T13:41:30Z</time>
      </trkpt>
      <trkpt lat="50.37949" lon="4.12326">
        <ele>182.2</ele>
        <time>2015-02-18T13:41:37Z</time>
      </trkpt>
      <trkpt lat="50.37942" lon="4.12325">
        <ele>181.5</ele>
        <time>2015-02-18T13:41:42Z</time>
      </trkpt>
      <trkpt lat="50.37935" lon="4.1232">
        <ele>181.9</ele>
        <time>2015-02-18T13:41:48Z</time>
      </trkpt>
      <trkpt lat="50.3793" lon="4.12312">
        <ele>182.4</ele>
        <time>2015-02-18T13:41:55Z</time>
      </trkpt>
      <trkpt lat="50.37922" lon="4.12309">
        <ele>183</ele>
        <time>2015-02-18T13:42:00Z</time>
      </trkpt>
      <trkpt lat="50.37917" lon="4.123">
        <ele>183.5</ele>
        <time>2015-02-18T13:42:05Z</time>
      </trkpt>
      <trkpt lat="50.3791" lon="4.12294">
        <ele>183.4</ele>
        <time>2015-02-18T13:42:10Z</time>
      </trkpt>
      <trkpt lat="50.37903" lon="4.12287">
        <ele>183.2</ele>
        <time>2015-02-18T13:42:15Z</time>
      </trkpt>
      <trkpt lat="50.37896" lon="4.12284">
        <ele>183.8</ele>
        <time>2015-02-18T13:42:19Z</time>
      </trkpt>
      <trkpt lat="50.3789" lon="4.12276">
        <ele>183.8</ele>
        <time>2015-02-18T13:42:26Z</time>
      </trkpt>
      <trkpt lat="50.37882" lon="4.12275">
        <ele>183.5</ele>
        <time>2015-02-18T13:42:30Z</time>
      </trkpt>
      <trkpt lat="50.37875" lon="4.1227">
        <ele>183.2</ele>
        <time>2015-02-18T13:42:33Z</time>
      </trkpt>
      <trkpt lat="50.37865" lon="4.12269">
        <ele>182.7</ele>
        <time>2015-02-18T13:42:36Z</time>
      </trkpt>
      <trkpt lat="50.37858" lon="4.12266">
        <ele>182.6</ele>
        <time>2015-02-18T13:42:39Z</time>
      </trkpt>
      <trkpt lat="50.37851" lon="4.12263">
        <ele>182.5</ele>
        <time>2015-02-18T13:42:43Z</time>
      </trkpt>
      <trkpt lat="50.37842" lon="4.12259">
        <ele>182.3</ele>
        <time>2015-02-18T13:42:49Z</time>
      </trkpt>
      <trkpt lat="50.37837" lon="4.12254">
        <ele>182.2</ele>
        <time>2015-02-18T13:42:56Z</time>
      </trkpt>
      <trkpt lat="50.37831" lon="4.12245">
        <ele>182.2</ele>
        <time>2015-02-18T13:43:02Z</time>
      </trkpt>
      <trkpt lat="50.37823" lon="4.12243">
        <ele>182.1</ele>
        <time>2015-02-18T13:43:04Z</time>
      </trkpt>
      <trkpt lat="50.37815" lon="4.1224">
        <ele>182.2</ele>
        <time>2015-02-18T13:43:07Z</time>
      </trkpt>
      <trkpt lat="50.37807" lon="4.12238">
        <ele>182.4</ele>
        <time>2015-02-18T13:43:12Z</time>
      </trkpt>
      <trkpt lat="50.378" lon="4.12237">
        <ele>182.5</ele>
        <time>2015-02-18T13:43:18Z</time>
      </trkpt>
      <trkpt lat="50.37794" lon="4.12235">
        <ele>182</ele>
        <time>2015-02-18T13:43:25Z</time>
      </trkpt>
      <trkpt lat="50.37785" lon="4.12233">
        <ele>181.6</ele>
        <time>2015-02-18T13:43:28Z</time>
      </trkpt>
      <trkpt lat="50.37778" lon="4.1223">
        <ele>181.6</ele>
        <time>2015-02-18T13:43:30Z</time>
      </trkpt>
      <trkpt lat="50.37771" lon="4.12224">
        <ele>181.4</ele>
        <time>2015-02-18T13:43:37Z</time>
      </trkpt>
      <trkpt lat="50.37764" lon="4.12219">
        <ele>181.4</ele>
        <time>2015-02-18T13:43:44Z</time>
      </trkpt>
      <trkpt lat="50.3776" lon="4.1221">
        <ele>181.3</ele>
        <time>2015-02-18T13:43:50Z</time>
      </trkpt>
      <trkpt lat="50.37751" lon="4.12206">
        <ele>181.7</ele>
        <time>2015-02-18T13:43:53Z</time>
      </trkpt>
      <trkpt lat="50.37744" lon="4.122">
        <ele>181.8</ele>
        <time>2015-02-18T13:43:57Z</time>
      </trkpt>
      <trkpt lat="50.37733" lon="4.12195">
        <ele>182.2</ele>
        <time>2015-02-18T13:44:01Z</time>
      </trkpt>
      <trkpt lat="50.37728" lon="4.12189">
        <ele>181.8</ele>
        <time>2015-02-18T13:44:08Z</time>
      </trkpt>
      <trkpt lat="50.37719" lon="4.12185">
        <ele>181.9</ele>
        <time>2015-02-18T13:44:15Z</time>
      </trkpt>
      <trkpt lat="50.37711" lon="4.12184">
        <ele>181.4</ele>
        <time>2015-02-18T13:44:18Z</time>
      </trkpt>
      <trkpt lat="50.37704" lon="4.12181">
        <ele>180.6</ele>
        <time>2015-02-18T13:44:21Z</time>
      </trkpt>
      <trkpt lat="50.37697" lon="4.12176">
        <ele>180.4</ele>
        <time>2015-02-18T13:44:25Z</time>
      </trkpt>
      <trkpt lat="50.37687" lon="4.12172">
        <ele>181</ele>
        <time>2015-02-18T13:44:32Z</time>
      </trkpt>
      <trkpt lat="50.3768" lon="4.12165">
        <ele>181.1</ele>
        <time>2015-02-18T13:44:36Z</time>
      </trkpt>
      <trkpt lat="50.37673" lon="4.12158">
        <ele>181.8</ele>
        <time>2015-02-18T13:44:41Z</time>
      </trkpt>
      <trkpt lat="50.37665" lon="4.12153">
        <ele>182.1</ele>
        <time>2015-02-18T13:44:46Z</time>
      </trkpt>
      <trkpt lat="50.37658" lon="4.12148">
        <ele>183</ele>
        <time>2015-02-18T13:44:52Z</time>
      </trkpt>
      <trkpt lat="50.37651" lon="4.12143">
        <ele>183.3</ele>
        <time>2015-02-18T13:44:59Z</time>
      </trkpt>
      <trkpt lat="50.37644" lon="4.12141">
        <ele>182.9</ele>
        <time>2015-02-18T13:45:04Z</time>
      </trkpt>
      <trkpt lat="50.37638" lon="4.12134">
        <ele>183.2</ele>
        <time>2015-02-18T13:45:09Z</time>
      </trkpt>
      <trkpt lat="50.37631" lon="4.12128">
        <ele>183.7</ele>
        <time>2015-02-18T13:45:13Z</time>
      </trkpt>
      <trkpt lat="50.37623" lon="4.12127">
        <ele>183.5</ele>
        <time>2015-02-18T13:45:16Z</time>
      </trkpt>
      <trkpt lat="50.37616" lon="4.12127">
        <ele>183</ele>
        <time>2015-02-18T13:45:19Z</time>
      </trkpt>
      <trkpt lat="50.37609" lon="4.1212">
        <ele>183.1</ele>
        <time>2015-02-18T13:45:25Z</time>
      </trkpt>
      <trkpt lat="50.376" lon="4.12116">
        <ele>183.2</ele>
        <time>2015-02-18T13:45:29Z</time>
      </trkpt>
      <trkpt lat="50.37591" lon="4.12116">
        <ele>182.6</ele>
        <time>2015-02-18T13:45:34Z</time>
      </trkpt>
      <trkpt lat="50.37583" lon="4.12111">
        <ele>182.9</ele>
        <time>2015-02-18T13:45:38Z</time>
      </trkpt>
      <trkpt lat="50.37577" lon="4.12105">
        <ele>183.4</ele>
        <time>2015-02-18T13:45:42Z</time>
      </trkpt>
      <trkpt lat="50.3757" lon="4.12101">
        <ele>184.4</ele>
        <time>2015-02-18T13:45:47Z</time>
      </trkpt>
      <trkpt lat="50.37565" lon="4.12094">
        <ele>185.3</ele>
        <time>2015-02-18T13:45:54Z</time>
      </trkpt>
      <trkpt lat="50.37558" lon="4.12087">
        <ele>186.7</ele>
        <time>2015-02-18T13:46:00Z</time>
      </trkpt>
      <trkpt lat="50.37553" lon="4.12081">
        <ele>188.1</ele>
        <time>2015-02-18T13:46:07Z</time>
      </trkpt>
      <trkpt lat="50.37545" lon="4.12076">
        <ele>189.5</ele>
        <time>2015-02-18T13:46:11Z</time>
      </trkpt>
      <trkpt lat="50.37538" lon="4.12071">
        <ele>190.7</ele>
        <time>2015-02-18T13:46:15Z</time>
      </trkpt>
      <trkpt lat="50.37534" lon="4.12063">
        <ele>192.5</ele>
        <time>2015-02-18T13:46:22Z</time>
      </trkpt>
      <trkpt lat="50.37527" lon="4.12058">
        <ele>194.1</ele>
        <time>2015-02-18T13:46:27Z</time>
      </trkpt>
      <trkpt lat="50.37519" lon="4.12052">
        <ele>196.1</ele>
        <time>2015-02-18T13:46:33Z</time>
      </trkpt>
      <trkpt lat="50.37512" lon="4.12048">
        <ele>197.4</ele>
        <time>2015-02-18T13:46:37Z</time>
      </trkpt>
      <trkpt lat="50.37505" lon="4.12044">
        <ele>198.3</ele>
        <time>2015-02-18T13:46:41Z</time>
      </trkpt>
      <trkpt lat="50.37497" lon="4.12041">
        <ele>199.6</ele>
        <time>2015-02-18T13:46:46Z</time>
      </trkpt>
      <trkpt lat="50.3749" lon="4.12036">
        <ele>201.1</ele>
        <time>2015-02-18T13:46:52Z</time>
      </trkpt>
      <trkpt lat="50.37482" lon="4.12036">
        <ele>201.5</ele>
        <time>2015-02-18T13:46:55Z</time>
      </trkpt>
      <trkpt lat="50.37473" lon="4.12033">
        <ele>201.6</ele>
        <time>2015-02-18T13:47:00Z</time>
      </trkpt>
      <trkpt lat="50.37464" lon="4.12031">
        <ele>202</ele>
        <time>2015-02-18T13:47:03Z</time>
      </trkpt>
      <trkpt lat="50.37458" lon="4.12024">
        <ele>202.4</ele>
        <time>2015-02-18T13:47:08Z</time>
      </trkpt>
      <trkpt lat="50.37449" lon="4.1202">
        <ele>203.1</ele>
        <time>2015-02-18T13:47:12Z</time>
      </trkpt>
      <trkpt lat="50.37443" lon="4.12015">
        <ele>203.6</ele>
        <time>2015-02-18T13:47:17Z</time>
      </trkpt>
      <trkpt lat="50.37435" lon="4.12016">
        <ele>204</ele>
        <time>2015-02-18T13:47:21Z</time>
      </trkpt>
      <trkpt lat="50.37428" lon="4.12014">
        <ele>203.8</ele>
        <time>2015-02-18T13:47:24Z</time>
      </trkpt>
      <trkpt lat="50.37419" lon="4.12011">
        <ele>203.6</ele>
        <time>2015-02-18T13:47:28Z</time>
      </trkpt>
      <trkpt lat="50.37412" lon="4.1201">
        <ele>203.5</ele>
        <time>2015-02-18T13:47:31Z</time>
      </trkpt>
      <trkpt lat="50.37404" lon="4.12008">
        <ele>203.3</ele>
        <time>2015-02-18T13:47:35Z</time>
      </trkpt>
      <trkpt lat="50.37396" lon="4.12006">
        <ele>203.8</ele>
        <time>2015-02-18T13:47:40Z</time>
      </trkpt>
      <trkpt lat="50.37388" lon="4.12001">
        <ele>203.6</ele>
        <time>2015-02-18T13:47:44Z</time>
      </trkpt>
      <trkpt lat="50.37381" lon="4.11996">
        <ele>203.8</ele>
        <time>2015-02-18T13:47:50Z</time>
      </trkpt>
      <trkpt lat="50.37374" lon="4.11994">
        <ele>204.1</ele>
        <time>2015-02-18T13:47:55Z</time>
      </trkpt>
      <trkpt lat="50.37366" lon="4.1199">
        <ele>204.4</ele>
        <time>2015-02-18T13:48:00Z</time>
      </trkpt>
      <trkpt lat="50.37359" lon="4.11984">
        <ele>205.2</ele>
        <time>2015-02-18T13:48:05Z</time>
      </trkpt>
      <trkpt lat="50.37351" lon="4.11977">
        <ele>206.3</ele>
        <time>2015-02-18T13:48:12Z</time>
      </trkpt>
      <trkpt lat="50.37343" lon="4.11973">
        <ele>206.6</ele>
        <time>2015-02-18T13:48:16Z</time>
      </trkpt>
      <trkpt lat="50.37336" lon="4.1197">
        <ele>206.9</ele>
        <time>2015-02-18T13:48:22Z</time>
      </trkpt>
      <trkpt lat="50.3733" lon="4.11974">
        <ele>204.7</ele>
        <time>2015-02-18T13:48:29Z</time>
      </trkpt>
      <trkpt lat="50.37322" lon="4.1197">
        <ele>203.5</ele>
        <time>2015-02-18T13:48:35Z</time>
      </trkpt>
      <trkpt lat="50.37317" lon="4.11966">
        <ele>203.3</ele>
        <time>2015-02-18T13:48:42Z</time>
      </trkpt>
      <trkpt lat="50.37308" lon="4.11966">
        <ele>202.3</ele>
        <time>2015-02-18T13:48:46Z</time>
      </trkpt>
      <trkpt lat="50.37299" lon="4.11965">
        <ele>201.2</ele>
        <time>2015-02-18T13:48:51Z</time>
      </trkpt>
      <trkpt lat="50.37288" lon="4.11963">
        <ele>199.8</ele>
        <time>2015-02-18T13:48:56Z</time>
      </trkpt>
      <trkpt lat="50.37281" lon="4.11961">
        <ele>199.5</ele>
        <time>2015-02-18T13:49:00Z</time>
      </trkpt>
      <trkpt lat="50.37271" lon="4.1196">
        <ele>198.7</ele>
        <time>2015-02-18T13:49:06Z</time>
      </trkpt>
      <trkpt lat="50.37263" lon="4.1196">
        <ele>196.1</ele>
        <time>2015-02-18T13:49:10Z</time>
      </trkpt>
      <trkpt lat="50.37255" lon="4.11958">
        <ele>194.3</ele>
        <time>2015-02-18T13:49:13Z</time>
      </trkpt>
      <trkpt lat="50.37247" lon="4.11959">
        <ele>192</ele>
        <time>2015-02-18T13:49:18Z</time>
      </trkpt>
      <trkpt lat="50.37241" lon="4.11954">
        <ele>191.2</ele>
        <time>2015-02-18T13:49:25Z</time>
      </trkpt>
      <trkpt lat="50.37233" lon="4.11954">
        <ele>190.3</ele>
        <time>2015-02-18T13:49:29Z</time>
      </trkpt>
      <trkpt lat="50.37226" lon="4.1195">
        <ele>189.6</ele>
        <time>2015-02-18T13:49:35Z</time>
      </trkpt>
      <trkpt lat="50.37218" lon="4.11952">
        <ele>188.3</ele>
        <time>2015-02-18T13:49:36Z</time>
      </trkpt>
      <trkpt lat="50.37205" lon="4.11954">
        <ele>185.9</ele>
        <time>2015-02-18T13:49:38Z</time>
      </trkpt>
      <trkpt lat="50.37196" lon="4.11956">
        <ele>184.7</ele>
        <time>2015-02-18T13:49:40Z</time>
      </trkpt>
      <trkpt lat="50.37187" lon="4.11953">
        <ele>183.1</ele>
        <time>2015-02-18T13:49:44Z</time>
      </trkpt>
      <trkpt lat="50.3718" lon="4.11948">
        <ele>179.9</ele>
        <time>2015-02-18T13:49:48Z</time>
      </trkpt>
      <trkpt lat="50.37162" lon="4.11943">
        <ele>163.1</ele>
        <time>2015-02-18T13:50:27Z</time>
      </trkpt>
      <trkpt lat="50.37157" lon="4.11942">
        <ele>160.8</ele>
        <time>2015-02-18T13:50:34Z</time>
      </trkpt>
      <trkpt lat="50.3715" lon="4.11934">
        <ele>159</ele>
        <time>2015-02-18T13:50:40Z</time>
      </trkpt>
      <trkpt lat="50.37143" lon="4.11927">
        <ele>157.5</ele>
        <time>2015-02-18T13:50:46Z</time>
      </trkpt>
      <trkpt lat="50.37137" lon="4.11922">
        <ele>155.8</ele>
        <time>2015-02-18T13:50:51Z</time>
      </trkpt>
      <trkpt lat="50.3713" lon="4.11916">
        <ele>155</ele>
        <time>2015-02-18T13:50:58Z</time>
      </trkpt>
      <trkpt lat="50.37126" lon="4.11906">
        <ele>154.4</ele>
        <time>2015-02-18T13:51:05Z</time>
      </trkpt>
      <trkpt lat="50.3712" lon="4.11898">
        <ele>154.2</ele>
        <time>2015-02-18T13:51:12Z</time>
      </trkpt>
      <trkpt lat="50.37113" lon="4.11892">
        <ele>154.4</ele>
        <time>2015-02-18T13:51:19Z</time>
      </trkpt>
      <trkpt lat="50.37107" lon="4.11887">
        <ele>155.3</ele>
        <time>2015-02-18T13:51:26Z</time>
      </trkpt>
      <trkpt lat="50.371" lon="4.11882">
        <ele>156.3</ele>
        <time>2015-02-18T13:51:32Z</time>
      </trkpt>
      <trkpt lat="50.37094" lon="4.11876">
        <ele>158.3</ele>
        <time>2015-02-18T13:51:39Z</time>
      </trkpt>
      <trkpt lat="50.37088" lon="4.11869">
        <ele>160.3</ele>
        <time>2015-02-18T13:51:46Z</time>
      </trkpt>
      <trkpt lat="50.37081" lon="4.11861">
        <ele>161.5</ele>
        <time>2015-02-18T13:51:52Z</time>
      </trkpt>
      <trkpt lat="50.37075" lon="4.11854">
        <ele>162.7</ele>
        <time>2015-02-18T13:51:58Z</time>
      </trkpt>
      <trkpt lat="50.37068" lon="4.11846">
        <ele>163.6</ele>
        <time>2015-02-18T13:52:03Z</time>
      </trkpt>
      <trkpt lat="50.37061" lon="4.11838">
        <ele>164.2</ele>
        <time>2015-02-18T13:52:08Z</time>
      </trkpt>
      <trkpt lat="50.37054" lon="4.11833">
        <ele>165</ele>
        <time>2015-02-18T13:52:12Z</time>
      </trkpt>
      <trkpt lat="50.37046" lon="4.11827">
        <ele>166</ele>
        <time>2015-02-18T13:52:17Z</time>
      </trkpt>
      <trkpt lat="50.3704" lon="4.11822">
        <ele>166.6</ele>
        <time>2015-02-18T13:52:21Z</time>
      </trkpt>
      <trkpt lat="50.37032" lon="4.11815">
        <ele>167.7</ele>
        <time>2015-02-18T13:52:26Z</time>
      </trkpt>
      <trkpt lat="50.37026" lon="4.11809">
        <ele>168.3</ele>
        <time>2015-02-18T13:52:30Z</time>
      </trkpt>
      <trkpt lat="50.37019" lon="4.11803">
        <ele>169.3</ele>
        <time>2015-02-18T13:52:34Z</time>
      </trkpt>
      <trkpt lat="50.37012" lon="4.11799">
        <ele>169.4</ele>
        <time>2015-02-18T13:52:37Z</time>
      </trkpt>
      <trkpt lat="50.37006" lon="4.11789">
        <ele>170</ele>
        <time>2015-02-18T13:52:42Z</time>
      </trkpt>
      <trkpt lat="50.36999" lon="4.11781">
        <ele>170</ele>
        <time>2015-02-18T13:52:47Z</time>
      </trkpt>
      <trkpt lat="50.36992" lon="4.11773">
        <ele>170</ele>
        <time>2015-02-18T13:52:52Z</time>
      </trkpt>
      <trkpt lat="50.36985" lon="4.11766">
        <ele>170.2</ele>
        <time>2015-02-18T13:52:57Z</time>
      </trkpt>
      <trkpt lat="50.36977" lon="4.11762">
        <ele>169.7</ele>
        <time>2015-02-18T13:53:03Z</time>
      </trkpt>
      <trkpt lat="50.3697" lon="4.11757">
        <ele>169.3</ele>
        <time>2015-02-18T13:53:10Z</time>
      </trkpt>
      <trkpt lat="50.36963" lon="4.11751">
        <ele>168.7</ele>
        <time>2015-02-18T13:53:15Z</time>
      </trkpt>
      <trkpt lat="50.36956" lon="4.11745">
        <ele>168.3</ele>
        <time>2015-02-18T13:53:20Z</time>
      </trkpt>
      <trkpt lat="50.36949" lon="4.11736">
        <ele>168.2</ele>
        <time>2015-02-18T13:53:26Z</time>
      </trkpt>
      <trkpt lat="50.36942" lon="4.11728">
        <ele>168.3</ele>
        <time>2015-02-18T13:53:31Z</time>
      </trkpt>
      <trkpt lat="50.36935" lon="4.11722">
        <ele>168.2</ele>
        <time>2015-02-18T13:53:36Z</time>
      </trkpt>
      <trkpt lat="50.36928" lon="4.11721">
        <ele>168</ele>
        <time>2015-02-18T13:53:41Z</time>
      </trkpt>
      <trkpt lat="50.36914" lon="4.11726">
        <ele>167.6</ele>
        <time>2015-02-18T13:53:44Z</time>
      </trkpt>
      <trkpt lat="50.36907" lon="4.11733">
        <ele>167.7</ele>
        <time>2015-02-18T13:53:47Z</time>
      </trkpt>
      <trkpt lat="50.3691" lon="4.11738">
        <ele>167.1</ele>
        <time>2015-02-18T13:53:54Z</time>
      </trkpt>
      <trkpt lat="50.36917" lon="4.11743">
        <ele>166.5</ele>
        <time>2015-02-18T13:54:00Z</time>
      </trkpt>
      <trkpt lat="50.36924" lon="4.11748">
        <ele>165.9</ele>
        <time>2015-02-18T13:54:05Z</time>
      </trkpt>
      <trkpt lat="50.36931" lon="4.11754">
        <ele>165.7</ele>
        <time>2015-02-18T13:54:10Z</time>
      </trkpt>
      <trkpt lat="50.36939" lon="4.11758">
        <ele>165.2</ele>
        <time>2015-02-18T13:54:17Z</time>
      </trkpt>
      <trkpt lat="50.36946" lon="4.11764">
        <ele>164.8</ele>
        <time>2015-02-18T13:54:23Z</time>
      </trkpt>
      <trkpt lat="50.36954" lon="4.11769">
        <ele>164.6</ele>
        <time>2015-02-18T13:54:28Z</time>
      </trkpt>
      <trkpt lat="50.36961" lon="4.11774">
        <ele>164.6</ele>
        <time>2015-02-18T13:54:33Z</time>
      </trkpt>
      <trkpt lat="50.36967" lon="4.11779">
        <ele>164.4</ele>
        <time>2015-02-18T13:54:38Z</time>
      </trkpt>
      <trkpt lat="50.36974" lon="4.11786">
        <ele>164.2</ele>
        <time>2015-02-18T13:54:43Z</time>
      </trkpt>
      <trkpt lat="50.3698" lon="4.11794">
        <ele>164</ele>
        <time>2015-02-18T13:54:48Z</time>
      </trkpt>
      <trkpt lat="50.36988" lon="4.118">
        <ele>163.3</ele>
        <time>2015-02-18T13:54:53Z</time>
      </trkpt>
      <trkpt lat="50.36994" lon="4.11808">
        <ele>163</ele>
        <time>2015-02-18T13:54:58Z</time>
      </trkpt>
      <trkpt lat="50.37001" lon="4.11814">
        <ele>162.5</ele>
        <time>2015-02-18T13:55:03Z</time>
      </trkpt>
      <trkpt lat="50.37007" lon="4.11822">
        <ele>162.3</ele>
        <time>2015-02-18T13:55:07Z</time>
      </trkpt>
      <trkpt lat="50.37013" lon="4.11829">
        <ele>161.9</ele>
        <time>2015-02-18T13:55:13Z</time>
      </trkpt>
      <trkpt lat="50.37021" lon="4.11836">
        <ele>161.7</ele>
        <time>2015-02-18T13:55:18Z</time>
      </trkpt>
      <trkpt lat="50.37027" lon="4.11845">
        <ele>161.5</ele>
        <time>2015-02-18T13:55:23Z</time>
      </trkpt>
      <trkpt lat="50.37033" lon="4.11851">
        <ele>161.3</ele>
        <time>2015-02-18T13:55:28Z</time>
      </trkpt>
      <trkpt lat="50.37039" lon="4.11857">
        <ele>161.3</ele>
        <time>2015-02-18T13:55:33Z</time>
      </trkpt>
      <trkpt lat="50.37045" lon="4.11863">
        <ele>160.9</ele>
        <time>2015-02-18T13:55:38Z</time>
      </trkpt>
      <trkpt lat="50.37052" lon="4.11869">
        <ele>160.5</ele>
        <time>2015-02-18T13:55:43Z</time>
      </trkpt>
      <trkpt lat="50.37059" lon="4.11874">
        <ele>160.2</ele>
        <time>2015-02-18T13:55:48Z</time>
      </trkpt>
      <trkpt lat="50.37066" lon="4.11879">
        <ele>160.1</ele>
        <time>2015-02-18T13:55:52Z</time>
      </trkpt>
      <trkpt lat="50.37073" lon="4.11883">
        <ele>159.6</ele>
        <time>2015-02-18T13:55:56Z</time>
      </trkpt>
      <trkpt lat="50.37081" lon="4.11887">
        <ele>159.3</ele>
        <time>2015-02-18T13:56:01Z</time>
      </trkpt>
      <trkpt lat="50.37089" lon="4.11892">
        <ele>158.9</ele>
        <time>2015-02-18T13:56:07Z</time>
      </trkpt>
      <trkpt lat="50.37096" lon="4.11896">
        <ele>158.2</ele>
        <time>2015-02-18T13:56:13Z</time>
      </trkpt>
      <trkpt lat="50.37104" lon="4.11902">
        <ele>157.6</ele>
        <time>2015-02-18T13:56:18Z</time>
      </trkpt>
      <trkpt lat="50.3711" lon="4.11909">
        <ele>157.3</ele>
        <time>2015-02-18T13:56:23Z</time>
      </trkpt>
      <trkpt lat="50.37117" lon="4.11914">
        <ele>157.3</ele>
        <time>2015-02-18T13:56:29Z</time>
      </trkpt>
      <trkpt lat="50.37124" lon="4.11918">
        <ele>157.7</ele>
        <time>2015-02-18T13:56:34Z</time>
      </trkpt>
      <trkpt lat="50.37133" lon="4.11923">
        <ele>157.7</ele>
        <time>2015-02-18T13:56:39Z</time>
      </trkpt>
      <trkpt lat="50.3714" lon="4.11926">
        <ele>157.9</ele>
        <time>2015-02-18T13:56:44Z</time>
      </trkpt>
      <trkpt lat="50.37148" lon="4.11929">
        <ele>158</ele>
        <time>2015-02-18T13:56:50Z</time>
      </trkpt>
      <trkpt lat="50.37156" lon="4.11933">
        <ele>158</ele>
        <time>2015-02-18T13:56:55Z</time>
      </trkpt>
      <trkpt lat="50.37164" lon="4.11937">
        <ele>157.2</ele>
        <time>2015-02-18T13:57:00Z</time>
      </trkpt>
      <trkpt lat="50.37172" lon="4.11941">
        <ele>156.3</ele>
        <time>2015-02-18T13:57:05Z</time>
      </trkpt>
      <trkpt lat="50.3718" lon="4.11943">
        <ele>154.8</ele>
        <time>2015-02-18T13:57:09Z</time>
      </trkpt>
      <trkpt lat="50.37188" lon="4.11945">
        <ele>154.5</ele>
        <time>2015-02-18T13:57:14Z</time>
      </trkpt>
      <trkpt lat="50.37196" lon="4.11947">
        <ele>153</ele>
        <time>2015-02-18T13:57:19Z</time>
      </trkpt>
      <trkpt lat="50.37203" lon="4.11951">
        <ele>152.8</ele>
        <time>2015-02-18T13:57:23Z</time>
      </trkpt>
      <trkpt lat="50.37212" lon="4.11952">
        <ele>151.8</ele>
        <time>2015-02-18T13:57:29Z</time>
      </trkpt>
      <trkpt lat="50.3722" lon="4.11954">
        <ele>151.3</ele>
        <time>2015-02-18T13:57:34Z</time>
      </trkpt>
      <trkpt lat="50.37227" lon="4.11956">
        <ele>149.7</ele>
        <time>2015-02-18T13:57:40Z</time>
      </trkpt>
      <trkpt lat="50.37235" lon="4.11958">
        <ele>149.5</ele>
        <time>2015-02-18T13:57:45Z</time>
      </trkpt>
      <trkpt lat="50.37243" lon="4.11962">
        <ele>150.3</ele>
        <time>2015-02-18T13:57:50Z</time>
      </trkpt>
      <trkpt lat="50.3725" lon="4.11967">
        <ele>150.2</ele>
        <time>2015-02-18T13:57:55Z</time>
      </trkpt>
      <trkpt lat="50.37258" lon="4.1197">
        <ele>149.5</ele>
        <time>2015-02-18T13:58:00Z</time>
      </trkpt>
      <trkpt lat="50.37265" lon="4.11973">
        <ele>148.2</ele>
        <time>2015-02-18T13:58:04Z</time>
      </trkpt>
      <trkpt lat="50.37274" lon="4.11974">
        <ele>146.9</ele>
        <time>2015-02-18T13:58:09Z</time>
      </trkpt>
      <trkpt lat="50.37281" lon="4.11977">
        <ele>146.1</ele>
        <time>2015-02-18T13:58:13Z</time>
      </trkpt>
      <trkpt lat="50.37289" lon="4.11979">
        <ele>145.2</ele>
        <time>2015-02-18T13:58:18Z</time>
      </trkpt>
      <trkpt lat="50.37297" lon="4.1198">
        <ele>144.4</ele>
        <time>2015-02-18T13:58:23Z</time>
      </trkpt>
      <trkpt lat="50.37305" lon="4.11981">
        <ele>142.5</ele>
        <time>2015-02-18T13:58:29Z</time>
      </trkpt>
      <trkpt lat="50.37313" lon="4.11984">
        <ele>142.6</ele>
        <time>2015-02-18T13:58:35Z</time>
      </trkpt>
      <trkpt lat="50.37321" lon="4.11983">
        <ele>142.3</ele>
        <time>2015-02-18T13:58:42Z</time>
      </trkpt>
      <trkpt lat="50.37327" lon="4.11984">
        <ele>141.2</ele>
        <time>2015-02-18T13:58:49Z</time>
      </trkpt>
      <trkpt lat="50.37336" lon="4.11987">
        <ele>140.9</ele>
        <time>2015-02-18T13:58:55Z</time>
      </trkpt>
      <trkpt lat="50.37343" lon="4.11994">
        <ele>140.5</ele>
        <time>2015-02-18T13:59:01Z</time>
      </trkpt>
      <trkpt lat="50.3735" lon="4.11997">
        <ele>140.4</ele>
        <time>2015-02-18T13:59:06Z</time>
      </trkpt>
      <trkpt lat="50.37358" lon="4.11999">
        <ele>139.7</ele>
        <time>2015-02-18T13:59:12Z</time>
      </trkpt>
      <trkpt lat="50.37365" lon="4.12004">
        <ele>138.3</ele>
        <time>2015-02-18T13:59:18Z</time>
      </trkpt>
      <trkpt lat="50.37373" lon="4.12001">
        <ele>137</ele>
        <time>2015-02-18T13:59:23Z</time>
      </trkpt>
      <trkpt lat="50.3738" lon="4.12003">
        <ele>135.2</ele>
        <time>2015-02-18T13:59:30Z</time>
      </trkpt>
      <trkpt lat="50.37388" lon="4.12006">
        <ele>133.4</ele>
        <time>2015-02-18T13:59:35Z</time>
      </trkpt>
      <trkpt lat="50.37395" lon="4.12012">
        <ele>132.5</ele>
        <time>2015-02-18T13:59:40Z</time>
      </trkpt>
      <trkpt lat="50.37402" lon="4.12017">
        <ele>131.9</ele>
        <time>2015-02-18T13:59:44Z</time>
      </trkpt>
      <trkpt lat="50.37413" lon="4.12024">
        <ele>131.2</ele>
        <time>2015-02-18T13:59:48Z</time>
      </trkpt>
      <trkpt lat="50.37421" lon="4.12029">
        <ele>130.5</ele>
        <time>2015-02-18T13:59:51Z</time>
      </trkpt>
      <trkpt lat="50.37427" lon="4.12035">
        <ele>129.3</ele>
        <time>2015-02-18T13:59:56Z</time>
      </trkpt>
      <trkpt lat="50.37434" lon="4.12038">
        <ele>128</ele>
        <time>2015-02-18T14:00:01Z</time>
      </trkpt>
      <trkpt lat="50.37442" lon="4.12042">
        <ele>126.7</ele>
        <time>2015-02-18T14:00:07Z</time>
      </trkpt>
      <trkpt lat="50.3745" lon="4.12045">
        <ele>125.2</ele>
        <time>2015-02-18T14:00:12Z</time>
      </trkpt>
      <trkpt lat="50.37457" lon="4.12049">
        <ele>124.5</ele>
        <time>2015-02-18T14:00:19Z</time>
      </trkpt>
      <trkpt lat="50.37465" lon="4.12051">
        <ele>123.3</ele>
        <time>2015-02-18T14:00:24Z</time>
      </trkpt>
      <trkpt lat="50.37472" lon="4.12053">
        <ele>122.9</ele>
        <time>2015-02-18T14:00:29Z</time>
      </trkpt>
      <trkpt lat="50.37479" lon="4.12056">
        <ele>122.2</ele>
        <time>2015-02-18T14:00:34Z</time>
      </trkpt>
      <trkpt lat="50.37488" lon="4.1206">
        <ele>123.3</ele>
        <time>2015-02-18T14:00:40Z</time>
      </trkpt>
      <trkpt lat="50.37495" lon="4.12067">
        <ele>126.2</ele>
        <time>2015-02-18T14:00:46Z</time>
      </trkpt>
      <trkpt lat="50.37503" lon="4.12072">
        <ele>128.2</ele>
        <time>2015-02-18T14:00:51Z</time>
      </trkpt>
      <trkpt lat="50.37512" lon="4.12076">
        <ele>130.2</ele>
        <time>2015-02-18T14:00:57Z</time>
      </trkpt>
      <trkpt lat="50.37518" lon="4.12082">
        <ele>132.4</ele>
        <time>2015-02-18T14:01:02Z</time>
      </trkpt>
      <trkpt lat="50.37526" lon="4.12085">
        <ele>134.2</ele>
        <time>2015-02-18T14:01:06Z</time>
      </trkpt>
      <trkpt lat="50.37532" lon="4.12092">
        <ele>136.2</ele>
        <time>2015-02-18T14:01:11Z</time>
      </trkpt>
      <trkpt lat="50.3754" lon="4.12096">
        <ele>137.9</ele>
        <time>2015-02-18T14:01:18Z</time>
      </trkpt>
      <trkpt lat="50.37547" lon="4.12099">
        <ele>140.4</ele>
        <time>2015-02-18T14:01:25Z</time>
      </trkpt>
      <trkpt lat="50.37553" lon="4.12101">
        <ele>142</ele>
        <time>2015-02-18T14:01:32Z</time>
      </trkpt>
      <trkpt lat="50.37559" lon="4.12105">
        <ele>144.2</ele>
        <time>2015-02-18T14:01:39Z</time>
      </trkpt>
      <trkpt lat="50.37566" lon="4.12111">
        <ele>145.9</ele>
        <time>2015-02-18T14:01:46Z</time>
      </trkpt>
      <trkpt lat="50.37574" lon="4.12114">
        <ele>147.2</ele>
        <time>2015-02-18T14:01:52Z</time>
      </trkpt>
      <trkpt lat="50.37582" lon="4.12118">
        <ele>148.4</ele>
        <time>2015-02-18T14:01:58Z</time>
      </trkpt>
      <trkpt lat="50.3759" lon="4.1212">
        <ele>148</ele>
        <time>2015-02-18T14:02:02Z</time>
      </trkpt>
      <trkpt lat="50.37597" lon="4.12127">
        <ele>148.2</ele>
        <time>2015-02-18T14:02:07Z</time>
      </trkpt>
      <trkpt lat="50.37605" lon="4.12132">
        <ele>148.6</ele>
        <time>2015-02-18T14:02:12Z</time>
      </trkpt>
      <trkpt lat="50.37612" lon="4.12136">
        <ele>149.1</ele>
        <time>2015-02-18T14:02:18Z</time>
      </trkpt>
      <trkpt lat="50.37619" lon="4.12143">
        <ele>149.5</ele>
        <time>2015-02-18T14:02:24Z</time>
      </trkpt>
      <trkpt lat="50.37626" lon="4.12148">
        <ele>149.9</ele>
        <time>2015-02-18T14:02:30Z</time>
      </trkpt>
      <trkpt lat="50.37631" lon="4.12156">
        <ele>150.5</ele>
        <time>2015-02-18T14:02:36Z</time>
      </trkpt>
      <trkpt lat="50.37638" lon="4.12161">
        <ele>151.7</ele>
        <time>2015-02-18T14:02:39Z</time>
      </trkpt>
      <trkpt lat="50.37645" lon="4.12165">
        <ele>153.2</ele>
        <time>2015-02-18T14:02:43Z</time>
      </trkpt>
      <trkpt lat="50.37652" lon="4.12172">
        <ele>154.7</ele>
        <time>2015-02-18T14:02:48Z</time>
      </trkpt>
      <trkpt lat="50.37659" lon="4.12176">
        <ele>156</ele>
        <time>2015-02-18T14:02:54Z</time>
      </trkpt>
      <trkpt lat="50.37667" lon="4.12179">
        <ele>156.6</ele>
        <time>2015-02-18T14:02:58Z</time>
      </trkpt>
      <trkpt lat="50.37673" lon="4.12189">
        <ele>157.6</ele>
        <time>2015-02-18T14:03:04Z</time>
      </trkpt>
      <trkpt lat="50.37681" lon="4.12192">
        <ele>157.8</ele>
        <time>2015-02-18T14:03:10Z</time>
      </trkpt>
      <trkpt lat="50.3769" lon="4.12198">
        <ele>158.6</ele>
        <time>2015-02-18T14:03:15Z</time>
      </trkpt>
      <trkpt lat="50.37698" lon="4.12202">
        <ele>159.1</ele>
        <time>2015-02-18T14:03:20Z</time>
      </trkpt>
      <trkpt lat="50.37705" lon="4.12203">
        <ele>159.1</ele>
        <time>2015-02-18T14:03:24Z</time>
      </trkpt>
      <trkpt lat="50.37712" lon="4.12207">
        <ele>159.8</ele>
        <time>2015-02-18T14:03:28Z</time>
      </trkpt>
      <trkpt lat="50.37719" lon="4.12214">
        <ele>161.1</ele>
        <time>2015-02-18T14:03:34Z</time>
      </trkpt>
      <trkpt lat="50.37727" lon="4.12219">
        <ele>162</ele>
        <time>2015-02-18T14:03:40Z</time>
      </trkpt>
      <trkpt lat="50.37735" lon="4.12219">
        <ele>161.6</ele>
        <time>2015-02-18T14:03:44Z</time>
      </trkpt>
      <trkpt lat="50.37742" lon="4.12226">
        <ele>161.7</ele>
        <time>2015-02-18T14:03:48Z</time>
      </trkpt>
      <trkpt lat="50.37749" lon="4.12229">
        <ele>161</ele>
        <time>2015-02-18T14:03:52Z</time>
      </trkpt>
      <trkpt lat="50.37756" lon="4.12237">
        <ele>161</ele>
        <time>2015-02-18T14:03:57Z</time>
      </trkpt>
      <trkpt lat="50.37763" lon="4.12243">
        <ele>160.4</ele>
        <time>2015-02-18T14:04:03Z</time>
      </trkpt>
      <trkpt lat="50.3777" lon="4.12248">
        <ele>159.3</ele>
        <time>2015-02-18T14:04:09Z</time>
      </trkpt>
      <trkpt lat="50.37777" lon="4.12254">
        <ele>158.7</ele>
        <time>2015-02-18T14:04:13Z</time>
      </trkpt>
      <trkpt lat="50.37785" lon="4.12257">
        <ele>158.4</ele>
        <time>2015-02-18T14:04:17Z</time>
      </trkpt>
      <trkpt lat="50.37792" lon="4.12264">
        <ele>158.7</ele>
        <time>2015-02-18T14:04:22Z</time>
      </trkpt>
      <trkpt lat="50.378" lon="4.12268">
        <ele>159.2</ele>
        <time>2015-02-18T14:04:27Z</time>
      </trkpt>
      <trkpt lat="50.37808" lon="4.12273">
        <ele>158.7</ele>
        <time>2015-02-18T14:04:34Z</time>
      </trkpt>
      <trkpt lat="50.37815" lon="4.12277">
        <ele>158.3</ele>
        <time>2015-02-18T14:04:39Z</time>
      </trkpt>
      <trkpt lat="50.37822" lon="4.1228">
        <ele>158</ele>
        <time>2015-02-18T14:04:44Z</time>
      </trkpt>
      <trkpt lat="50.37828" lon="4.12286">
        <ele>157.6</ele>
        <time>2015-02-18T14:04:49Z</time>
      </trkpt>
      <trkpt lat="50.37836" lon="4.12285">
        <ele>156.9</ele>
        <time>2015-02-18T14:04:54Z</time>
      </trkpt>
      <trkpt lat="50.37843" lon="4.1229">
        <ele>156.2</ele>
        <time>2015-02-18T14:04:59Z</time>
      </trkpt>
      <trkpt lat="50.37852" lon="4.12295">
        <ele>156.9</ele>
        <time>2015-02-18T14:05:04Z</time>
      </trkpt>
      <trkpt lat="50.37858" lon="4.123">
        <ele>156.8</ele>
        <time>2015-02-18T14:05:10Z</time>
      </trkpt>
      <trkpt lat="50.37865" lon="4.12307">
        <ele>156.8</ele>
        <time>2015-02-18T14:05:15Z</time>
      </trkpt>
      <trkpt lat="50.37872" lon="4.12312">
        <ele>157</ele>
        <time>2015-02-18T14:05:19Z</time>
      </trkpt>
      <trkpt lat="50.37879" lon="4.12317">
        <ele>157.9</ele>
        <time>2015-02-18T14:05:24Z</time>
      </trkpt>
      <trkpt lat="50.37887" lon="4.12322">
        <ele>157.5</ele>
        <time>2015-02-18T14:05:29Z</time>
      </trkpt>
      <trkpt lat="50.37895" lon="4.12327">
        <ele>157.4</ele>
        <time>2015-02-18T14:05:36Z</time>
      </trkpt>
      <trkpt lat="50.37903" lon="4.12332">
        <ele>157.5</ele>
        <time>2015-02-18T14:05:41Z</time>
      </trkpt>
      <trkpt lat="50.37911" lon="4.12337">
        <ele>157.4</ele>
        <time>2015-02-18T14:05:47Z</time>
      </trkpt>
      <trkpt lat="50.37918" lon="4.1234">
        <ele>157.5</ele>
        <time>2015-02-18T14:05:53Z</time>
      </trkpt>
      <trkpt lat="50.37925" lon="4.12344">
        <ele>157.6</ele>
        <time>2015-02-18T14:05:58Z</time>
      </trkpt>
      <trkpt lat="50.37933" lon="4.12345">
        <ele>157.6</ele>
        <time>2015-02-18T14:06:03Z</time>
      </trkpt>
      <trkpt lat="50.3794" lon="4.1235">
        <ele>157.3</ele>
        <time>2015-02-18T14:06:08Z</time>
      </trkpt>
      <trkpt lat="50.37946" lon="4.12355">
        <ele>157.9</ele>
        <time>2015-02-18T14:06:12Z</time>
      </trkpt>
      <trkpt lat="50.37956" lon="4.12355">
        <ele>157.4</ele>
        <time>2015-02-18T14:06:16Z</time>
      </trkpt>
      <trkpt lat="50.37963" lon="4.12359">
        <ele>157.3</ele>
        <time>2015-02-18T14:06:20Z</time>
      </trkpt>
      <trkpt lat="50.3797" lon="4.12364">
        <ele>156.6</ele>
        <time>2015-02-18T14:06:24Z</time>
      </trkpt>
      <trkpt lat="50.37976" lon="4.12373">
        <ele>156.9</ele>
        <time>2015-02-18T14:06:31Z</time>
      </trkpt>
      <trkpt lat="50.37983" lon="4.12379">
        <ele>156.8</ele>
        <time>2015-02-18T14:06:36Z</time>
      </trkpt>
      <trkpt lat="50.3799" lon="4.12386">
        <ele>156.9</ele>
        <time>2015-02-18T14:06:41Z</time>
      </trkpt>
      <trkpt lat="50.37998" lon="4.12388">
        <ele>157.3</ele>
        <time>2015-02-18T14:06:46Z</time>
      </trkpt>
      <trkpt lat="50.38005" lon="4.1239">
        <ele>156.7</ele>
        <time>2015-02-18T14:06:52Z</time>
      </trkpt>
      <trkpt lat="50.38012" lon="4.12393">
        <ele>156.3</ele>
        <time>2015-02-18T14:06:57Z</time>
      </trkpt>
      <trkpt lat="50.38021" lon="4.12399">
        <ele>155.3</ele>
        <time>2015-02-18T14:07:02Z</time>
      </trkpt>
      <trkpt lat="50.38028" lon="4.12404">
        <ele>155.1</ele>
        <time>2015-02-18T14:07:07Z</time>
      </trkpt>
      <trkpt lat="50.38035" lon="4.12404">
        <ele>154.7</ele>
        <time>2015-02-18T14:07:12Z</time>
      </trkpt>
      <trkpt lat="50.3804" lon="4.12414">
        <ele>154.4</ele>
        <time>2015-02-18T14:07:19Z</time>
      </trkpt>
      <trkpt lat="50.38046" lon="4.12422">
        <ele>154.9</ele>
        <time>2015-02-18T14:07:25Z</time>
      </trkpt>
      <trkpt lat="50.38053" lon="4.1243">
        <ele>155.6</ele>
        <time>2015-02-18T14:07:31Z</time>
      </trkpt>
      <trkpt lat="50.38063" lon="4.12433">
        <ele>155.5</ele>
        <time>2015-02-18T14:07:35Z</time>
      </trkpt>
      <trkpt lat="50.38071" lon="4.12435">
        <ele>155.4</ele>
        <time>2015-02-18T14:07:39Z</time>
      </trkpt>
      <trkpt lat="50.38077" lon="4.12441">
        <ele>154.9</ele>
        <time>2015-02-18T14:07:44Z</time>
      </trkpt>
      <trkpt lat="50.38085" lon="4.12446">
        <ele>154.8</ele>
        <time>2015-02-18T14:07:51Z</time>
      </trkpt>
      <trkpt lat="50.38091" lon="4.12454">
        <ele>154.6</ele>
        <time>2015-02-18T14:07:56Z</time>
      </trkpt>
      <trkpt lat="50.38098" lon="4.12461">
        <ele>154.6</ele>
        <time>2015-02-18T14:08:01Z</time>
      </trkpt>
      <trkpt lat="50.38106" lon="4.12465">
        <ele>155.3</ele>
        <time>2015-02-18T14:08:07Z</time>
      </trkpt>
      <trkpt lat="50.38113" lon="4.12466">
        <ele>155.9</ele>
        <time>2015-02-18T14:08:14Z</time>
      </trkpt>
      <trkpt lat="50.38122" lon="4.12471">
        <ele>156.2</ele>
        <time>2015-02-18T14:08:19Z</time>
      </trkpt>
      <trkpt lat="50.38129" lon="4.12474">
        <ele>157.1</ele>
        <time>2015-02-18T14:08:24Z</time>
      </trkpt>
      <trkpt lat="50.38137" lon="4.1248">
        <ele>158.4</ele>
        <time>2015-02-18T14:08:31Z</time>
      </trkpt>
      <trkpt lat="50.38145" lon="4.12483">
        <ele>159.2</ele>
        <time>2015-02-18T14:08:38Z</time>
      </trkpt>
      <trkpt lat="50.38154" lon="4.12486">
        <ele>159.5</ele>
        <time>2015-02-18T14:08:42Z</time>
      </trkpt>
      <trkpt lat="50.38162" lon="4.12493">
        <ele>160.2</ele>
        <time>2015-02-18T14:08:46Z</time>
      </trkpt>
      <trkpt lat="50.38169" lon="4.12496">
        <ele>160.5</ele>
        <time>2015-02-18T14:08:49Z</time>
      </trkpt>
      <trkpt lat="50.38176" lon="4.12501">
        <ele>161.2</ele>
        <time>2015-02-18T14:08:53Z</time>
      </trkpt>
      <trkpt lat="50.38185" lon="4.12502">
        <ele>161.2</ele>
        <time>2015-02-18T14:08:58Z</time>
      </trkpt>
      <trkpt lat="50.38192" lon="4.12505">
        <ele>161.4</ele>
        <time>2015-02-18T14:09:02Z</time>
      </trkpt>
      <trkpt lat="50.382" lon="4.12507">
        <ele>161.6</ele>
        <time>2015-02-18T14:09:07Z</time>
      </trkpt>
      <trkpt lat="50.38207" lon="4.12514">
        <ele>162.1</ele>
        <time>2015-02-18T14:09:13Z</time>
      </trkpt>
      <trkpt lat="50.38215" lon="4.12518">
        <ele>163.1</ele>
        <time>2015-02-18T14:09:18Z</time>
      </trkpt>
      <trkpt lat="50.38221" lon="4.12524">
        <ele>164.2</ele>
        <time>2015-02-18T14:09:24Z</time>
      </trkpt>
      <trkpt lat="50.3823" lon="4.1253">
        <ele>165.1</ele>
        <time>2015-02-18T14:09:29Z</time>
      </trkpt>
      <trkpt lat="50.38237" lon="4.12535">
        <ele>166.3</ele>
        <time>2015-02-18T14:09:34Z</time>
      </trkpt>
      <trkpt lat="50.38243" lon="4.12544">
        <ele>166.9</ele>
        <time>2015-02-18T14:09:40Z</time>
      </trkpt>
      <trkpt lat="50.38252" lon="4.1255">
        <ele>167.7</ele>
        <time>2015-02-18T14:09:44Z</time>
      </trkpt>
      <trkpt lat="50.3826" lon="4.12554">
        <ele>168.3</ele>
        <time>2015-02-18T14:09:48Z</time>
      </trkpt>
      <trkpt lat="50.38266" lon="4.12562">
        <ele>168.9</ele>
        <time>2015-02-18T14:09:53Z</time>
      </trkpt>
      <trkpt lat="50.38275" lon="4.12567">
        <ele>170.1</ele>
        <time>2015-02-18T14:09:59Z</time>
      </trkpt>
      <trkpt lat="50.38282" lon="4.1257">
        <ele>171.2</ele>
        <time>2015-02-18T14:10:04Z</time>
      </trkpt>
      <trkpt lat="50.38288" lon="4.12576">
        <ele>172.1</ele>
        <time>2015-02-18T14:10:10Z</time>
      </trkpt>
      <trkpt lat="50.38297" lon="4.12575">
        <ele>172.6</ele>
        <time>2015-02-18T14:10:15Z</time>
      </trkpt>
      <trkpt lat="50.38305" lon="4.12575">
        <ele>173.1</ele>
        <time>2015-02-18T14:10:19Z</time>
      </trkpt>
      <trkpt lat="50.38312" lon="4.12581">
        <ele>174.1</ele>
        <time>2015-02-18T14:10:25Z</time>
      </trkpt>
      <trkpt lat="50.38317" lon="4.12588">
        <ele>175.4</ele>
        <time>2015-02-18T14:10:28Z</time>
      </trkpt>
      <trkpt lat="50.38325" lon="4.12599">
        <ele>178.8</ele>
        <time>2015-02-18T14:10:31Z</time>
      </trkpt>
      <trkpt lat="50.38333" lon="4.12603">
        <ele>180</ele>
        <time>2015-02-18T14:10:34Z</time>
      </trkpt>
      <trkpt lat="50.3834" lon="4.12607">
        <ele>181.3</ele>
        <time>2015-02-18T14:10:38Z</time>
      </trkpt>
      <trkpt lat="50.38348" lon="4.12614">
        <ele>182</ele>
        <time>2015-02-18T14:10:43Z</time>
      </trkpt>
      <trkpt lat="50.38354" lon="4.12619">
        <ele>182.5</ele>
        <time>2015-02-18T14:10:47Z</time>
      </trkpt>
      <trkpt lat="50.38362" lon="4.1262">
        <ele>180.5</ele>
        <time>2015-02-18T14:10:50Z</time>
      </trkpt>
      <trkpt lat="50.38369" lon="4.12625">
        <ele>180.6</ele>
        <time>2015-02-18T14:10:56Z</time>
      </trkpt>
      <trkpt lat="50.38376" lon="4.12631">
        <ele>181.6</ele>
        <time>2015-02-18T14:11:01Z</time>
      </trkpt>
      <trkpt lat="50.38382" lon="4.12639">
        <ele>182.4</ele>
        <time>2015-02-18T14:11:06Z</time>
      </trkpt>
      <trkpt lat="50.38388" lon="4.12646">
        <ele>182.5</ele>
        <time>2015-02-18T14:11:13Z</time>
      </trkpt>
      <trkpt lat="50.38396" lon="4.12651">
        <ele>182.8</ele>
        <time>2015-02-18T14:11:18Z</time>
      </trkpt>
      <trkpt lat="50.38404" lon="4.12656">
        <ele>182.1</ele>
        <time>2015-02-18T14:11:24Z</time>
      </trkpt>
      <trkpt lat="50.38411" lon="4.12661">
        <ele>182</ele>
        <time>2015-02-18T14:11:29Z</time>
      </trkpt>
      <trkpt lat="50.38418" lon="4.12668">
        <ele>182.1</ele>
        <time>2015-02-18T14:11:34Z</time>
      </trkpt>
      <trkpt lat="50.38424" lon="4.12674">
        <ele>181.9</ele>
        <time>2015-02-18T14:11:40Z</time>
      </trkpt>
      <trkpt lat="50.38433" lon="4.12675">
        <ele>181.3</ele>
        <time>2015-02-18T14:11:46Z</time>
      </trkpt>
      <trkpt lat="50.3844" lon="4.12679">
        <ele>181.1</ele>
        <time>2015-02-18T14:11:52Z</time>
      </trkpt>
      <trkpt lat="50.38447" lon="4.12682">
        <ele>180.9</ele>
        <time>2015-02-18T14:11:58Z</time>
      </trkpt>
      <trkpt lat="50.38455" lon="4.12688">
        <ele>180.7</ele>
        <time>2015-02-18T14:12:04Z</time>
      </trkpt>
      <trkpt lat="50.38462" lon="4.1269">
        <ele>180.8</ele>
        <time>2015-02-18T14:12:08Z</time>
      </trkpt>
      <trkpt lat="50.38469" lon="4.12695">
        <ele>181.3</ele>
        <time>2015-02-18T14:12:13Z</time>
      </trkpt>
      <trkpt lat="50.38477" lon="4.12697">
        <ele>181.3</ele>
        <time>2015-02-18T14:12:18Z</time>
      </trkpt>
      <trkpt lat="50.38483" lon="4.12702">
        <ele>181.6</ele>
        <time>2015-02-18T14:12:23Z</time>
      </trkpt>
      <trkpt lat="50.38489" lon="4.12711">
        <ele>182.1</ele>
        <time>2015-02-18T14:12:28Z</time>
      </trkpt>
      <trkpt lat="50.38496" lon="4.12713">
        <ele>182.9</ele>
        <time>2015-02-18T14:12:34Z</time>
      </trkpt>
      <trkpt lat="50.38504" lon="4.12717">
        <ele>183.3</ele>
        <time>2015-02-18T14:12:38Z</time>
      </trkpt>
      <trkpt lat="50.38512" lon="4.12723">
        <ele>183.3</ele>
        <time>2015-02-18T14:12:45Z</time>
      </trkpt>
      <trkpt lat="50.38518" lon="4.12728">
        <ele>183.3</ele>
        <time>2015-02-18T14:12:51Z</time>
      </trkpt>
      <trkpt lat="50.38526" lon="4.12731">
        <ele>183.3</ele>
        <time>2015-02-18T14:12:56Z</time>
      </trkpt>
      <trkpt lat="50.38533" lon="4.12737">
        <ele>184.1</ele>
        <time>2015-02-18T14:13:00Z</time>
      </trkpt>
      <trkpt lat="50.38541" lon="4.12742">
        <ele>184.6</ele>
        <time>2015-02-18T14:13:05Z</time>
      </trkpt>
      <trkpt lat="50.38549" lon="4.12749">
        <ele>184.8</ele>
        <time>2015-02-18T14:13:10Z</time>
      </trkpt>
      <trkpt lat="50.38555" lon="4.12756">
        <ele>184.9</ele>
        <time>2015-02-18T14:13:15Z</time>
      </trkpt>
      <trkpt lat="50.38561" lon="4.12765">
        <ele>184.9</ele>
        <time>2015-02-18T14:13:21Z</time>
      </trkpt>
      <trkpt lat="50.38566" lon="4.12772">
        <ele>184.3</ele>
        <time>2015-02-18T14:13:26Z</time>
      </trkpt>
      <trkpt lat="50.38576" lon="4.12778">
        <ele>183.9</ele>
        <time>2015-02-18T14:13:33Z</time>
      </trkpt>
      <trkpt lat="50.38585" lon="4.12782">
        <ele>184</ele>
        <time>2015-02-18T14:13:38Z</time>
      </trkpt>
      <trkpt lat="50.38592" lon="4.12786">
        <ele>184.3</ele>
        <time>2015-02-18T14:13:43Z</time>
      </trkpt>
      <trkpt lat="50.38595" lon="4.12797">
        <ele>184.8</ele>
        <time>2015-02-18T14:13:47Z</time>
      </trkpt>
      <trkpt lat="50.38602" lon="4.12803">
        <ele>184.8</ele>
        <time>2015-02-18T14:13:51Z</time>
      </trkpt>
      <trkpt lat="50.38609" lon="4.12805">
        <ele>184.2</ele>
        <time>2015-02-18T14:13:55Z</time>
      </trkpt>
      <trkpt lat="50.38617" lon="4.1281">
        <ele>183.6</ele>
        <time>2015-02-18T14:13:59Z</time>
      </trkpt>
      <trkpt lat="50.38622" lon="4.1282">
        <ele>183.4</ele>
        <time>2015-02-18T14:14:05Z</time>
      </trkpt>
      <trkpt lat="50.38629" lon="4.12826">
        <ele>182.9</ele>
        <time>2015-02-18T14:14:10Z</time>
      </trkpt>
      <trkpt lat="50.38635" lon="4.12834">
        <ele>182.9</ele>
        <time>2015-02-18T14:14:14Z</time>
      </trkpt>
      <trkpt lat="50.38642" lon="4.12841">
        <ele>183.2</ele>
        <time>2015-02-18T14:14:18Z</time>
      </trkpt>
      <trkpt lat="50.38648" lon="4.12845">
        <ele>183.6</ele>
        <time>2015-02-18T14:14:22Z</time>
      </trkpt>
      <trkpt lat="50.38655" lon="4.12852">
        <ele>182.9</ele>
        <time>2015-02-18T14:14:25Z</time>
      </trkpt>
      <trkpt lat="50.38661" lon="4.12858">
        <ele>183</ele>
        <time>2015-02-18T14:14:31Z</time>
      </trkpt>
      <trkpt lat="50.38667" lon="4.12866">
        <ele>183.5</ele>
        <time>2015-02-18T14:14:38Z</time>
      </trkpt>
      <trkpt lat="50.38671" lon="4.12877">
        <ele>184.7</ele>
        <time>2015-02-18T14:14:43Z</time>
      </trkpt>
      <trkpt lat="50.38677" lon="4.12885">
        <ele>184.3</ele>
        <time>2015-02-18T14:14:47Z</time>
      </trkpt>
      <trkpt lat="50.38682" lon="4.12894">
        <ele>183.9</ele>
        <time>2015-02-18T14:14:53Z</time>
      </trkpt>
      <trkpt lat="50.38687" lon="4.12896">
        <ele>182.1</ele>
        <time>2015-02-18T14:15:00Z</time>
      </trkpt>
      <trkpt lat="50.38694" lon="4.12904">
        <ele>181.1</ele>
        <time>2015-02-18T14:15:04Z</time>
      </trkpt>
      <trkpt lat="50.387" lon="4.12911">
        <ele>179.6</ele>
        <time>2015-02-18T14:15:09Z</time>
      </trkpt>
      <trkpt lat="50.38706" lon="4.12918">
        <ele>178.4</ele>
        <time>2015-02-18T14:15:15Z</time>
      </trkpt>
      <trkpt lat="50.38713" lon="4.12929">
        <ele>178.2</ele>
        <time>2015-02-18T14:15:21Z</time>
      </trkpt>
      <trkpt lat="50.38717" lon="4.12938">
        <ele>177.9</ele>
        <time>2015-02-18T14:15:26Z</time>
      </trkpt>
      <trkpt lat="50.38724" lon="4.12948">
        <ele>178</ele>
        <time>2015-02-18T14:15:31Z</time>
      </trkpt>
      <trkpt lat="50.38728" lon="4.12958">
        <ele>178.1</ele>
        <time>2015-02-18T14:15:35Z</time>
      </trkpt>
      <trkpt lat="50.38732" lon="4.12965">
        <ele>178</ele>
        <time>2015-02-18T14:15:42Z</time>
      </trkpt>
      <trkpt lat="50.38737" lon="4.12974">
        <ele>177.9</ele>
        <time>2015-02-18T14:15:49Z</time>
      </trkpt>
      <trkpt lat="50.3874" lon="4.12984">
        <ele>177.3</ele>
        <time>2015-02-18T14:15:56Z</time>
      </trkpt>
      <trkpt lat="50.38747" lon="4.12997">
        <ele>175.2</ele>
        <time>2015-02-18T14:16:01Z</time>
      </trkpt>
      <trkpt lat="50.38754" lon="4.13008">
        <ele>173.3</ele>
        <time>2015-02-18T14:16:04Z</time>
      </trkpt>
      <trkpt lat="50.38759" lon="4.1302">
        <ele>172.3</ele>
        <time>2015-02-18T14:16:08Z</time>
      </trkpt>
      <trkpt lat="50.38763" lon="4.13031">
        <ele>172.2</ele>
        <time>2015-02-18T14:16:12Z</time>
      </trkpt>
      <trkpt lat="50.38769" lon="4.13041">
        <ele>171.1</ele>
        <time>2015-02-18T14:16:15Z</time>
      </trkpt>
      <trkpt lat="50.38774" lon="4.13053">
        <ele>169.7</ele>
        <time>2015-02-18T14:16:19Z</time>
      </trkpt>
      <trkpt lat="50.38779" lon="4.1306">
        <ele>168.9</ele>
        <time>2015-02-18T14:16:23Z</time>
      </trkpt>
      <trkpt lat="50.38785" lon="4.13069">
        <ele>168.5</ele>
        <time>2015-02-18T14:16:28Z</time>
      </trkpt>
      <trkpt lat="50.38789" lon="4.13078">
        <ele>166.8</ele>
        <time>2015-02-18T14:16:32Z</time>
      </trkpt>
      <trkpt lat="50.38794" lon="4.13087">
        <ele>165.4</ele>
        <time>2015-02-18T14:16:37Z</time>
      </trkpt>
      <trkpt lat="50.388" lon="4.13098">
        <ele>164.5</ele>
        <time>2015-02-18T14:16:43Z</time>
      </trkpt>
      <trkpt lat="50.38808" lon="4.13105">
        <ele>163.9</ele>
        <time>2015-02-18T14:16:46Z</time>
      </trkpt>
      <trkpt lat="50.38814" lon="4.13116">
        <ele>164.1</ele>
        <time>2015-02-18T14:16:51Z</time>
      </trkpt>
      <trkpt lat="50.38818" lon="4.13127">
        <ele>163.4</ele>
        <time>2015-02-18T14:16:57Z</time>
      </trkpt>
      <trkpt lat="50.38824" lon="4.13136">
        <ele>162.7</ele>
        <time>2015-02-18T14:17:02Z</time>
      </trkpt>
      <trkpt lat="50.38828" lon="4.13146">
        <ele>161.5</ele>
        <time>2015-02-18T14:17:08Z</time>
      </trkpt>
      <trkpt lat="50.38834" lon="4.13155">
        <ele>161.3</ele>
        <time>2015-02-18T14:17:13Z</time>
      </trkpt>
      <trkpt lat="50.38837" lon="4.13164">
        <ele>159.3</ele>
        <time>2015-02-18T14:17:20Z</time>
      </trkpt>
      <trkpt lat="50.38841" lon="4.13173">
        <ele>157.9</ele>
        <time>2015-02-18T14:17:24Z</time>
      </trkpt>
      <trkpt lat="50.38844" lon="4.13185">
        <ele>156.8</ele>
        <time>2015-02-18T14:17:29Z</time>
      </trkpt>
      <trkpt lat="50.38849" lon="4.13195">
        <ele>155.7</ele>
        <time>2015-02-18T14:17:34Z</time>
      </trkpt>
      <trkpt lat="50.38854" lon="4.13206">
        <ele>154.8</ele>
        <time>2015-02-18T14:17:40Z</time>
      </trkpt>
      <trkpt lat="50.38859" lon="4.13216">
        <ele>153.9</ele>
        <time>2015-02-18T14:17:46Z</time>
      </trkpt>
      <trkpt lat="50.38864" lon="4.13226">
        <ele>153.7</ele>
        <time>2015-02-18T14:17:51Z</time>
      </trkpt>
      <trkpt lat="50.38867" lon="4.13237">
        <ele>153.7</ele>
        <time>2015-02-18T14:17:56Z</time>
      </trkpt>
      <trkpt lat="50.38873" lon="4.13247">
        <ele>152.8</ele>
        <time>2015-02-18T14:18:00Z</time>
      </trkpt>
      <trkpt lat="50.38879" lon="4.13258">
        <ele>152</ele>
        <time>2015-02-18T14:18:05Z</time>
      </trkpt>
      <trkpt lat="50.38884" lon="4.13268">
        <ele>152.1</ele>
        <time>2015-02-18T14:18:10Z</time>
      </trkpt>
      <trkpt lat="50.3889" lon="4.13279">
        <ele>152.2</ele>
        <time>2015-02-18T14:18:15Z</time>
      </trkpt>
      <trkpt lat="50.38895" lon="4.13289">
        <ele>152.5</ele>
        <time>2015-02-18T14:18:20Z</time>
      </trkpt>
      <trkpt lat="50.38899" lon="4.13299">
        <ele>152.6</ele>
        <time>2015-02-18T14:18:24Z</time>
      </trkpt>
      <trkpt lat="50.38904" lon="4.13309">
        <ele>152.7</ele>
        <time>2015-02-18T14:18:29Z</time>
      </trkpt>
      <trkpt lat="50.38909" lon="4.13319">
        <ele>152.5</ele>
        <time>2015-02-18T14:18:34Z</time>
      </trkpt>
      <trkpt lat="50.38912" lon="4.13329">
        <ele>152.3</ele>
        <time>2015-02-18T14:18:39Z</time>
      </trkpt>
      <trkpt lat="50.38915" lon="4.13341">
        <ele>150.4</ele>
        <time>2015-02-18T14:18:45Z</time>
      </trkpt>
      <trkpt lat="50.3892" lon="4.1335">
        <ele>149.4</ele>
        <time>2015-02-18T14:18:50Z</time>
      </trkpt>
      <trkpt lat="50.38926" lon="4.13359">
        <ele>148.6</ele>
        <time>2015-02-18T14:18:55Z</time>
      </trkpt>
      <trkpt lat="50.38932" lon="4.13366">
        <ele>148.1</ele>
        <time>2015-02-18T14:18:59Z</time>
      </trkpt>
      <trkpt lat="50.38937" lon="4.13376">
        <ele>147.7</ele>
        <time>2015-02-18T14:19:04Z</time>
      </trkpt>
      <trkpt lat="50.38941" lon="4.13386">
        <ele>147.5</ele>
        <time>2015-02-18T14:19:10Z</time>
      </trkpt>
      <trkpt lat="50.38945" lon="4.13398">
        <ele>147.3</ele>
        <time>2015-02-18T14:19:15Z</time>
      </trkpt>
      <trkpt lat="50.38949" lon="4.13411">
        <ele>146.8</ele>
        <time>2015-02-18T14:19:21Z</time>
      </trkpt>
      <trkpt lat="50.38952" lon="4.13422">
        <ele>146.6</ele>
        <time>2015-02-18T14:19:27Z</time>
      </trkpt>
      <trkpt lat="50.38957" lon="4.13432">
        <ele>146.5</ele>
        <time>2015-02-18T14:19:33Z</time>
      </trkpt>
      <trkpt lat="50.38962" lon="4.13442">
        <ele>146.7</ele>
        <time>2015-02-18T14:19:39Z</time>
      </trkpt>
      <trkpt lat="50.38967" lon="4.13451">
        <ele>147</ele>
        <time>2015-02-18T14:19:46Z</time>
      </trkpt>
      <trkpt lat="50.38972" lon="4.1346">
        <ele>147.6</ele>
        <time>2015-02-18T14:19:52Z</time>
      </trkpt>
      <trkpt lat="50.38978" lon="4.13469">
        <ele>148.4</ele>
        <time>2015-02-18T14:19:58Z</time>
      </trkpt>
      <trkpt lat="50.38982" lon="4.13477">
        <ele>149.1</ele>
        <time>2015-02-18T14:20:05Z</time>
      </trkpt>
      <trkpt lat="50.38988" lon="4.13487">
        <ele>150.1</ele>
        <time>2015-02-18T14:20:11Z</time>
      </trkpt>
      <trkpt lat="50.38991" lon="4.13499">
        <ele>150.8</ele>
        <time>2015-02-18T14:20:18Z</time>
      </trkpt>
      <trkpt lat="50.38995" lon="4.13508">
        <ele>150.5</ele>
        <time>2015-02-18T14:20:25Z</time>
      </trkpt>
      <trkpt lat="50.39" lon="4.13516">
        <ele>150.6</ele>
        <time>2015-02-18T14:20:30Z</time>
      </trkpt>
      <trkpt lat="50.39006" lon="4.13522">
        <ele>150.8</ele>
        <time>2015-02-18T14:20:37Z</time>
      </trkpt>
      <trkpt lat="50.39009" lon="4.13531">
        <ele>151.1</ele>
        <time>2015-02-18T14:20:44Z</time>
      </trkpt>
      <trkpt lat="50.39014" lon="4.13541">
        <ele>151.7</ele>
        <time>2015-02-18T14:20:51Z</time>
      </trkpt>
      <trkpt lat="50.3902" lon="4.13553">
        <ele>151</ele>
        <time>2015-02-18T14:20:56Z</time>
      </trkpt>
      <trkpt lat="50.39021" lon="4.13567">
        <ele>150.1</ele>
        <time>2015-02-18T14:21:01Z</time>
      </trkpt>
      <trkpt lat="50.39023" lon="4.13579">
        <ele>148.8</ele>
        <time>2015-02-18T14:21:05Z</time>
      </trkpt>
      <trkpt lat="50.39026" lon="4.1359">
        <ele>148.8</ele>
        <time>2015-02-18T14:21:08Z</time>
      </trkpt>
      <trkpt lat="50.39031" lon="4.13601">
        <ele>148</ele>
        <time>2015-02-18T14:21:11Z</time>
      </trkpt>
      <trkpt lat="50.39035" lon="4.13611">
        <ele>147.8</ele>
        <time>2015-02-18T14:21:15Z</time>
      </trkpt>
      <trkpt lat="50.3904" lon="4.1362">
        <ele>147.1</ele>
        <time>2015-02-18T14:21:20Z</time>
      </trkpt>
      <trkpt lat="50.39045" lon="4.13629">
        <ele>147.5</ele>
        <time>2015-02-18T14:21:24Z</time>
      </trkpt>
      <trkpt lat="50.3905" lon="4.13638">
        <ele>147</ele>
        <time>2015-02-18T14:21:28Z</time>
      </trkpt>
      <trkpt lat="50.39055" lon="4.13647">
        <ele>146.7</ele>
        <time>2015-02-18T14:21:33Z</time>
      </trkpt>
      <trkpt lat="50.39059" lon="4.13658">
        <ele>147</ele>
        <time>2015-02-18T14:21:38Z</time>
      </trkpt>
      <trkpt lat="50.39064" lon="4.13669">
        <ele>146.2</ele>
        <time>2015-02-18T14:21:45Z</time>
      </trkpt>
      <trkpt lat="50.39067" lon="4.13679">
        <ele>145.9</ele>
        <time>2015-02-18T14:21:50Z</time>
      </trkpt>
      <trkpt lat="50.39072" lon="4.13687">
        <ele>145.3</ele>
        <time>2015-02-18T14:21:57Z</time>
      </trkpt>
      <trkpt lat="50.39076" lon="4.13699">
        <ele>145.6</ele>
        <time>2015-02-18T14:22:02Z</time>
      </trkpt>
      <trkpt lat="50.39081" lon="4.13706">
        <ele>145.5</ele>
        <time>2015-02-18T14:22:06Z</time>
      </trkpt>
      <trkpt lat="50.39088" lon="4.13713">
        <ele>145.2</ele>
        <time>2015-02-18T14:22:11Z</time>
      </trkpt>
      <trkpt lat="50.39094" lon="4.13722">
        <ele>144.4</ele>
        <time>2015-02-18T14:22:15Z</time>
      </trkpt>
      <trkpt lat="50.39098" lon="4.13734">
        <ele>144.1</ele>
        <time>2015-02-18T14:22:20Z</time>
      </trkpt>
      <trkpt lat="50.391" lon="4.13746">
        <ele>143.8</ele>
        <time>2015-02-18T14:22:26Z</time>
      </trkpt>
      <trkpt lat="50.39104" lon="4.13756">
        <ele>142.9</ele>
        <time>2015-02-18T14:22:32Z</time>
      </trkpt>
      <trkpt lat="50.39111" lon="4.13768">
        <ele>142.6</ele>
        <time>2015-02-18T14:22:37Z</time>
      </trkpt>
      <trkpt lat="50.39115" lon="4.13777">
        <ele>142.1</ele>
        <time>2015-02-18T14:22:42Z</time>
      </trkpt>
      <trkpt lat="50.39119" lon="4.13789">
        <ele>142.3</ele>
        <time>2015-02-18T14:22:46Z</time>
      </trkpt>
      <trkpt lat="50.39123" lon="4.13804">
        <ele>142.1</ele>
        <time>2015-02-18T14:22:50Z</time>
      </trkpt>
      <trkpt lat="50.39126" lon="4.13814">
        <ele>141.9</ele>
        <time>2015-02-18T14:22:53Z</time>
      </trkpt>
      <trkpt lat="50.39133" lon="4.13823">
        <ele>141.5</ele>
        <time>2015-02-18T14:22:58Z</time>
      </trkpt>
      <trkpt lat="50.39139" lon="4.13829">
        <ele>141.2</ele>
        <time>2015-02-18T14:23:04Z</time>
      </trkpt>
      <trkpt lat="50.39146" lon="4.13836">
        <ele>141</ele>
        <time>2015-02-18T14:23:10Z</time>
      </trkpt>
      <trkpt lat="50.3915" lon="4.13848">
        <ele>140.8</ele>
        <time>2015-02-18T14:23:17Z</time>
      </trkpt>
      <trkpt lat="50.39154" lon="4.13858">
        <ele>141</ele>
        <time>2015-02-18T14:23:23Z</time>
      </trkpt>
      <trkpt lat="50.39157" lon="4.13868">
        <ele>141.5</ele>
        <time>2015-02-18T14:23:29Z</time>
      </trkpt>
      <trkpt lat="50.39159" lon="4.1388">
        <ele>142.4</ele>
        <time>2015-02-18T14:23:35Z</time>
      </trkpt>
      <trkpt lat="50.39165" lon="4.13891">
        <ele>143</ele>
        <time>2015-02-18T14:23:41Z</time>
      </trkpt>
      <trkpt lat="50.39169" lon="4.13901">
        <ele>143.4</ele>
        <time>2015-02-18T14:23:44Z</time>
      </trkpt>
      <trkpt lat="50.39174" lon="4.1391">
        <ele>143.4</ele>
        <time>2015-02-18T14:23:51Z</time>
      </trkpt>
      <trkpt lat="50.39179" lon="4.13919">
        <ele>144.2</ele>
        <time>2015-02-18T14:23:58Z</time>
      </trkpt>
      <trkpt lat="50.39183" lon="4.13931">
        <ele>144.2</ele>
        <time>2015-02-18T14:24:03Z</time>
      </trkpt>
      <trkpt lat="50.39189" lon="4.13938">
        <ele>144.1</ele>
        <time>2015-02-18T14:24:08Z</time>
      </trkpt>
      <trkpt lat="50.39193" lon="4.13944">
        <ele>143.8</ele>
        <time>2015-02-18T14:24:15Z</time>
      </trkpt>
      <trkpt lat="50.39197" lon="4.13955">
        <ele>142.1</ele>
        <time>2015-02-18T14:24:20Z</time>
      </trkpt>
      <trkpt lat="50.392" lon="4.13969">
        <ele>142.2</ele>
        <time>2015-02-18T14:24:26Z</time>
      </trkpt>
      <trkpt lat="50.39204" lon="4.13979">
        <ele>141.3</ele>
        <time>2015-02-18T14:24:29Z</time>
      </trkpt>
      <trkpt lat="50.39207" lon="4.13992">
        <ele>141.3</ele>
        <time>2015-02-18T14:24:35Z</time>
      </trkpt>
      <trkpt lat="50.39211" lon="4.14001">
        <ele>141.4</ele>
        <time>2015-02-18T14:24:40Z</time>
      </trkpt>
      <trkpt lat="50.39217" lon="4.14011">
        <ele>142.2</ele>
        <time>2015-02-18T14:24:45Z</time>
      </trkpt>
      <trkpt lat="50.39222" lon="4.1402">
        <ele>142.2</ele>
        <time>2015-02-18T14:24:51Z</time>
      </trkpt>
      <trkpt lat="50.39228" lon="4.14027">
        <ele>141.3</ele>
        <time>2015-02-18T14:24:57Z</time>
      </trkpt>
      <trkpt lat="50.39236" lon="4.14035">
        <ele>140.1</ele>
        <time>2015-02-18T14:25:01Z</time>
      </trkpt>
      <trkpt lat="50.3924" lon="4.14045">
        <ele>139.1</ele>
        <time>2015-02-18T14:25:08Z</time>
      </trkpt>
      <trkpt lat="50.39245" lon="4.14056">
        <ele>137.5</ele>
        <time>2015-02-18T14:25:12Z</time>
      </trkpt>
      <trkpt lat="50.39249" lon="4.14065">
        <ele>136.4</ele>
        <time>2015-02-18T14:25:19Z</time>
      </trkpt>
      <trkpt lat="50.39254" lon="4.1408">
        <ele>136.6</ele>
        <time>2015-02-18T14:25:23Z</time>
      </trkpt>
      <trkpt lat="50.39257" lon="4.14095">
        <ele>139.3</ele>
        <time>2015-02-18T14:25:26Z</time>
      </trkpt>
      <trkpt lat="50.39259" lon="4.14103">
        <ele>140.2</ele>
        <time>2015-02-18T14:25:33Z</time>
      </trkpt>
      <trkpt lat="50.39264" lon="4.14115">
        <ele>139.8</ele>
        <time>2015-02-18T14:25:35Z</time>
      </trkpt>
      <trkpt lat="50.39264" lon="4.14116">
        <ele>139.6</ele>
        <time>2015-02-18T14:25:42Z</time>
      </trkpt>
      <trkpt lat="50.39264" lon="4.14116">
        <ele>139.6</ele>
        <time>2015-02-18T14:25:44Z</time>
      </trkpt>
      <trkpt lat="50.39271" lon="4.14126">
        <ele>136.8</ele>
        <time>2015-02-18T14:26:11Z</time>
      </trkpt>
      <trkpt lat="50.39272" lon="4.14132">
        <ele>137</ele>
        <time>2015-02-18T14:26:18Z</time>
      </trkpt>
      <trkpt lat="50.39275" lon="4.1414">
        <ele>137.1</ele>
        <time>2015-02-18T14:26:25Z</time>
      </trkpt>
      <trkpt lat="50.39282" lon="4.14146">
        <ele>137.2</ele>
        <time>2015-02-18T14:26:32Z</time>
      </trkpt>
      <trkpt lat="50.39286" lon="4.14155">
        <ele>138</ele>
        <time>2015-02-18T14:26:38Z</time>
      </trkpt>
      <trkpt lat="50.39291" lon="4.14164">
        <ele>138.1</ele>
        <time>2015-02-18T14:26:45Z</time>
      </trkpt>
      <trkpt lat="50.39295" lon="4.14174">
        <ele>138.1</ele>
        <time>2015-02-18T14:26:50Z</time>
      </trkpt>
      <trkpt lat="50.39302" lon="4.14185">
        <ele>138</ele>
        <time>2015-02-18T14:26:54Z</time>
      </trkpt>
      <trkpt lat="50.39307" lon="4.14194">
        <ele>137.4</ele>
        <time>2015-02-18T14:26:58Z</time>
      </trkpt>
      <trkpt lat="50.39309" lon="4.14207">
        <ele>137.6</ele>
        <time>2015-02-18T14:27:02Z</time>
      </trkpt>
      <trkpt lat="50.39311" lon="4.14219">
        <ele>138.1</ele>
        <time>2015-02-18T14:27:07Z</time>
      </trkpt>
      <trkpt lat="50.39314" lon="4.14227">
        <ele>138.2</ele>
        <time>2015-02-18T14:27:14Z</time>
      </trkpt>
      <trkpt lat="50.39318" lon="4.14238">
        <ele>138.6</ele>
        <time>2015-02-18T14:27:19Z</time>
      </trkpt>
      <trkpt lat="50.39322" lon="4.14248">
        <ele>138.9</ele>
        <time>2015-02-18T14:27:23Z</time>
      </trkpt>
      <trkpt lat="50.39325" lon="4.14259">
        <ele>139.2</ele>
        <time>2015-02-18T14:27:27Z</time>
      </trkpt>
      <trkpt lat="50.39332" lon="4.14268">
        <ele>139.2</ele>
        <time>2015-02-18T14:27:31Z</time>
      </trkpt>
      <trkpt lat="50.39337" lon="4.14278">
        <ele>139.6</ele>
        <time>2015-02-18T14:27:36Z</time>
      </trkpt>
      <trkpt lat="50.39343" lon="4.14285">
        <ele>139.9</ele>
        <time>2015-02-18T14:27:42Z</time>
      </trkpt>
      <trkpt lat="50.39347" lon="4.14294">
        <ele>140.3</ele>
        <time>2015-02-18T14:27:49Z</time>
      </trkpt>
      <trkpt lat="50.39353" lon="4.14305">
        <ele>140.8</ele>
        <time>2015-02-18T14:27:54Z</time>
      </trkpt>
      <trkpt lat="50.39359" lon="4.14311">
        <ele>141.1</ele>
        <time>2015-02-18T14:28:00Z</time>
      </trkpt>
      <trkpt lat="50.39365" lon="4.1432">
        <ele>141.5</ele>
        <time>2015-02-18T14:28:05Z</time>
      </trkpt>
      <trkpt lat="50.3937" lon="4.1433">
        <ele>141.7</ele>
        <time>2015-02-18T14:28:09Z</time>
      </trkpt>
      <trkpt lat="50.39371" lon="4.14342">
        <ele>142.3</ele>
        <time>2015-02-18T14:28:12Z</time>
      </trkpt>
      <trkpt lat="50.39376" lon="4.14351">
        <ele>142.7</ele>
        <time>2015-02-18T14:28:17Z</time>
      </trkpt>
      <trkpt lat="50.39381" lon="4.14361">
        <ele>143</ele>
        <time>2015-02-18T14:28:22Z</time>
      </trkpt>
      <trkpt lat="50.39385" lon="4.14372">
        <ele>143.2</ele>
        <time>2015-02-18T14:28:26Z</time>
      </trkpt>
      <trkpt lat="50.39389" lon="4.14382">
        <ele>143.5</ele>
        <time>2015-02-18T14:28:31Z</time>
      </trkpt>
      <trkpt lat="50.39392" lon="4.14395">
        <ele>143.8</ele>
        <time>2015-02-18T14:28:37Z</time>
      </trkpt>
      <trkpt lat="50.39393" lon="4.1441">
        <ele>144.1</ele>
        <time>2015-02-18T14:28:41Z</time>
      </trkpt>
      <trkpt lat="50.39397" lon="4.14421">
        <ele>144.6</ele>
        <time>2015-02-18T14:28:45Z</time>
      </trkpt>
      <trkpt lat="50.39402" lon="4.1443">
        <ele>145.1</ele>
        <time>2015-02-18T14:28:49Z</time>
      </trkpt>
      <trkpt lat="50.39407" lon="4.14438">
        <ele>145.5</ele>
        <time>2015-02-18T14:28:53Z</time>
      </trkpt>
      <trkpt lat="50.3941" lon="4.14451">
        <ele>145.3</ele>
        <time>2015-02-18T14:28:58Z</time>
      </trkpt>
      <trkpt lat="50.3941" lon="4.14462">
        <ele>145</ele>
        <time>2015-02-18T14:29:01Z</time>
      </trkpt>
      <trkpt lat="50.39414" lon="4.14473">
        <ele>144.9</ele>
        <time>2015-02-18T14:29:06Z</time>
      </trkpt>
      <trkpt lat="50.39419" lon="4.14484">
        <ele>145.2</ele>
        <time>2015-02-18T14:29:11Z</time>
      </trkpt>
      <trkpt lat="50.39424" lon="4.14494">
        <ele>145.4</ele>
        <time>2015-02-18T14:29:16Z</time>
      </trkpt>
      <trkpt lat="50.39428" lon="4.14505">
        <ele>145.1</ele>
        <time>2015-02-18T14:29:20Z</time>
      </trkpt>
      <trkpt lat="50.39433" lon="4.14513">
        <ele>144.5</ele>
        <time>2015-02-18T14:29:24Z</time>
      </trkpt>
      <trkpt lat="50.39438" lon="4.14523">
        <ele>143.9</ele>
        <time>2015-02-18T14:29:29Z</time>
      </trkpt>
      <trkpt lat="50.39444" lon="4.14535">
        <ele>143.3</ele>
        <time>2015-02-18T14:29:34Z</time>
      </trkpt>
      <trkpt lat="50.39449" lon="4.14545">
        <ele>142.9</ele>
        <time>2015-02-18T14:29:38Z</time>
      </trkpt>
      <trkpt lat="50.39454" lon="4.14556">
        <ele>142.6</ele>
        <time>2015-02-18T14:29:43Z</time>
      </trkpt>
      <trkpt lat="50.39459" lon="4.14564">
        <ele>142.2</ele>
        <time>2015-02-18T14:29:48Z</time>
      </trkpt>
      <trkpt lat="50.39464" lon="4.14574">
        <ele>141.7</ele>
        <time>2015-02-18T14:29:53Z</time>
      </trkpt>
      <trkpt lat="50.39469" lon="4.14583">
        <ele>141.2</ele>
        <time>2015-02-18T14:29:59Z</time>
      </trkpt>
      <trkpt lat="50.39474" lon="4.14593">
        <ele>141</ele>
        <time>2015-02-18T14:30:04Z</time>
      </trkpt>
      <trkpt lat="50.3948" lon="4.14602">
        <ele>141</ele>
        <time>2015-02-18T14:30:09Z</time>
      </trkpt>
      <trkpt lat="50.39483" lon="4.14614">
        <ele>141.3</ele>
        <time>2015-02-18T14:30:15Z</time>
      </trkpt>
      <trkpt lat="50.39491" lon="4.14618">
        <ele>141.6</ele>
        <time>2015-02-18T14:30:22Z</time>
      </trkpt>
      <trkpt lat="50.39491" lon="4.1463">
        <ele>142.1</ele>
        <time>2015-02-18T14:30:27Z</time>
      </trkpt>
      <trkpt lat="50.39494" lon="4.14641">
        <ele>142.4</ele>
        <time>2015-02-18T14:30:33Z</time>
      </trkpt>
      <trkpt lat="50.395" lon="4.14651">
        <ele>142.5</ele>
        <time>2015-02-18T14:30:39Z</time>
      </trkpt>
      <trkpt lat="50.39504" lon="4.14659">
        <ele>142.9</ele>
        <time>2015-02-18T14:30:46Z</time>
      </trkpt>
      <trkpt lat="50.39511" lon="4.14665">
        <ele>142.9</ele>
        <time>2015-02-18T14:30:52Z</time>
      </trkpt>
      <trkpt lat="50.39517" lon="4.14673">
        <ele>142.8</ele>
        <time>2015-02-18T14:30:59Z</time>
      </trkpt>
      <trkpt lat="50.39524" lon="4.14684">
        <ele>143.2</ele>
        <time>2015-02-18T14:31:04Z</time>
      </trkpt>
      <trkpt lat="50.39529" lon="4.14693">
        <ele>143.6</ele>
        <time>2015-02-18T14:31:09Z</time>
      </trkpt>
      <trkpt lat="50.39534" lon="4.14701">
        <ele>143.4</ele>
        <time>2015-02-18T14:31:13Z</time>
      </trkpt>
      <trkpt lat="50.39538" lon="4.14711">
        <ele>144</ele>
        <time>2015-02-18T14:31:20Z</time>
      </trkpt>
      <trkpt lat="50.39541" lon="4.14722">
        <ele>143.9</ele>
        <time>2015-02-18T14:31:27Z</time>
      </trkpt>
      <trkpt lat="50.39545" lon="4.14733">
        <ele>144.3</ele>
        <time>2015-02-18T14:31:33Z</time>
      </trkpt>
      <trkpt lat="50.39547" lon="4.14745">
        <ele>144.9</ele>
        <time>2015-02-18T14:31:38Z</time>
      </trkpt>
      <trkpt lat="50.39552" lon="4.14756">
        <ele>144.9</ele>
        <time>2015-02-18T14:31:42Z</time>
      </trkpt>
      <trkpt lat="50.39558" lon="4.14764">
        <ele>145.3</ele>
        <time>2015-02-18T14:31:48Z</time>
      </trkpt>
      <trkpt lat="50.39564" lon="4.14772">
        <ele>145.6</ele>
        <time>2015-02-18T14:31:55Z</time>
      </trkpt>
      <trkpt lat="50.39567" lon="4.14783">
        <ele>145.7</ele>
        <time>2015-02-18T14:32:00Z</time>
      </trkpt>
      <trkpt lat="50.39571" lon="4.14793">
        <ele>146.4</ele>
        <time>2015-02-18T14:32:05Z</time>
      </trkpt>
      <trkpt lat="50.39574" lon="4.14804">
        <ele>147.4</ele>
        <time>2015-02-18T14:32:08Z</time>
      </trkpt>
      <trkpt lat="50.39579" lon="4.14812">
        <ele>148.1</ele>
        <time>2015-02-18T14:32:14Z</time>
      </trkpt>
      <trkpt lat="50.39586" lon="4.14821">
        <ele>148.2</ele>
        <time>2015-02-18T14:32:18Z</time>
      </trkpt>
      <trkpt lat="50.3959" lon="4.14831">
        <ele>148.6</ele>
        <time>2015-02-18T14:32:22Z</time>
      </trkpt>
      <trkpt lat="50.39596" lon="4.14842">
        <ele>148.6</ele>
        <time>2015-02-18T14:32:26Z</time>
      </trkpt>
      <trkpt lat="50.396" lon="4.14854">
        <ele>148.9</ele>
        <time>2015-02-18T14:32:31Z</time>
      </trkpt>
      <trkpt lat="50.39602" lon="4.14867">
        <ele>150.1</ele>
        <time>2015-02-18T14:32:36Z</time>
      </trkpt>
      <trkpt lat="50.39607" lon="4.14877">
        <ele>151.2</ele>
        <time>2015-02-18T14:32:40Z</time>
      </trkpt>
      <trkpt lat="50.39611" lon="4.14887">
        <ele>152</ele>
        <time>2015-02-18T14:32:44Z</time>
      </trkpt>
      <trkpt lat="50.39613" lon="4.14899">
        <ele>153.3</ele>
        <time>2015-02-18T14:32:48Z</time>
      </trkpt>
      <trkpt lat="50.39618" lon="4.1491">
        <ele>154.1</ele>
        <time>2015-02-18T14:32:53Z</time>
      </trkpt>
      <trkpt lat="50.39624" lon="4.14918">
        <ele>154.4</ele>
        <time>2015-02-18T14:32:57Z</time>
      </trkpt>
      <trkpt lat="50.39627" lon="4.14931">
        <ele>155.6</ele>
        <time>2015-02-18T14:33:03Z</time>
      </trkpt>
      <trkpt lat="50.39631" lon="4.14941">
        <ele>157.3</ele>
        <time>2015-02-18T14:33:09Z</time>
      </trkpt>
      <trkpt lat="50.39635" lon="4.14954">
        <ele>159.1</ele>
        <time>2015-02-18T14:33:15Z</time>
      </trkpt>
      <trkpt lat="50.3964" lon="4.14966">
        <ele>160.7</ele>
        <time>2015-02-18T14:33:20Z</time>
      </trkpt>
      <trkpt lat="50.39643" lon="4.14977">
        <ele>162.1</ele>
        <time>2015-02-18T14:33:26Z</time>
      </trkpt>
      <trkpt lat="50.39649" lon="4.14986">
        <ele>163.7</ele>
        <time>2015-02-18T14:33:33Z</time>
      </trkpt>
      <trkpt lat="50.39654" lon="4.14993">
        <ele>164.8</ele>
        <time>2015-02-18T14:33:39Z</time>
      </trkpt>
      <trkpt lat="50.39657" lon="4.15005">
        <ele>165.3</ele>
        <time>2015-02-18T14:33:44Z</time>
      </trkpt>
      <trkpt lat="50.39661" lon="4.15014">
        <ele>166</ele>
        <time>2015-02-18T14:33:49Z</time>
      </trkpt>
      <trkpt lat="50.39665" lon="4.15025">
        <ele>166.8</ele>
        <time>2015-02-18T14:33:54Z</time>
      </trkpt>
      <trkpt lat="50.39671" lon="4.15034">
        <ele>168</ele>
        <time>2015-02-18T14:34:00Z</time>
      </trkpt>
      <trkpt lat="50.39674" lon="4.15045">
        <ele>169.2</ele>
        <time>2015-02-18T14:34:05Z</time>
      </trkpt>
      <trkpt lat="50.3968" lon="4.15053">
        <ele>170.6</ele>
        <time>2015-02-18T14:34:10Z</time>
      </trkpt>
      <trkpt lat="50.39685" lon="4.15063">
        <ele>170.9</ele>
        <time>2015-02-18T14:34:15Z</time>
      </trkpt>
      <trkpt lat="50.39689" lon="4.15072">
        <ele>171.6</ele>
        <time>2015-02-18T14:34:20Z</time>
      </trkpt>
      <trkpt lat="50.39691" lon="4.15086">
        <ele>170.9</ele>
        <time>2015-02-18T14:34:24Z</time>
      </trkpt>
      <trkpt lat="50.39696" lon="4.15095">
        <ele>171.6</ele>
        <time>2015-02-18T14:34:30Z</time>
      </trkpt>
      <trkpt lat="50.39701" lon="4.15107">
        <ele>173</ele>
        <time>2015-02-18T14:34:36Z</time>
      </trkpt>
      <trkpt lat="50.39705" lon="4.15118">
        <ele>174</ele>
        <time>2015-02-18T14:34:41Z</time>
      </trkpt>
      <trkpt lat="50.3971" lon="4.15128">
        <ele>174.6</ele>
        <time>2015-02-18T14:34:47Z</time>
      </trkpt>
      <trkpt lat="50.39715" lon="4.15135">
        <ele>175.7</ele>
        <time>2015-02-18T14:34:54Z</time>
      </trkpt>
      <trkpt lat="50.39719" lon="4.15148">
        <ele>175.8</ele>
        <time>2015-02-18T14:34:59Z</time>
      </trkpt>
      <trkpt lat="50.39722" lon="4.15161">
        <ele>176</ele>
        <time>2015-02-18T14:35:03Z</time>
      </trkpt>
      <trkpt lat="50.39727" lon="4.15171">
        <ele>176</ele>
        <time>2015-02-18T14:35:06Z</time>
      </trkpt>
      <trkpt lat="50.3973" lon="4.15184">
        <ele>176.1</ele>
        <time>2015-02-18T14:35:11Z</time>
      </trkpt>
      <trkpt lat="50.39733" lon="4.15195">
        <ele>177.3</ele>
        <time>2015-02-18T14:35:16Z</time>
      </trkpt>
      <trkpt lat="50.39741" lon="4.15203">
        <ele>177.5</ele>
        <time>2015-02-18T14:35:21Z</time>
      </trkpt>
      <trkpt lat="50.39746" lon="4.15213">
        <ele>177.1</ele>
        <time>2015-02-18T14:35:26Z</time>
      </trkpt>
      <trkpt lat="50.39752" lon="4.15224">
        <ele>177.5</ele>
        <time>2015-02-18T14:35:33Z</time>
      </trkpt>
      <trkpt lat="50.39759" lon="4.15234">
        <ele>177.5</ele>
        <time>2015-02-18T14:35:38Z</time>
      </trkpt>
      <trkpt lat="50.39764" lon="4.15243">
        <ele>177.7</ele>
        <time>2015-02-18T14:35:43Z</time>
      </trkpt>
      <trkpt lat="50.39769" lon="4.15255">
        <ele>177</ele>
        <time>2015-02-18T14:35:46Z</time>
      </trkpt>
      <trkpt lat="50.39772" lon="4.15266">
        <ele>177.1</ele>
        <time>2015-02-18T14:35:50Z</time>
      </trkpt>
      <trkpt lat="50.39778" lon="4.15277">
        <ele>176.8</ele>
        <time>2015-02-18T14:35:55Z</time>
      </trkpt>
      <trkpt lat="50.39783" lon="4.15286">
        <ele>176.1</ele>
        <time>2015-02-18T14:36:00Z</time>
      </trkpt>
      <trkpt lat="50.39788" lon="4.15294">
        <ele>175.8</ele>
        <time>2015-02-18T14:36:07Z</time>
      </trkpt>
      <trkpt lat="50.39791" lon="4.15304">
        <ele>177.2</ele>
        <time>2015-02-18T14:36:14Z</time>
      </trkpt>
      <trkpt lat="50.39796" lon="4.15315">
        <ele>177.9</ele>
        <time>2015-02-18T14:36:20Z</time>
      </trkpt>
      <trkpt lat="50.39801" lon="4.15323">
        <ele>178.8</ele>
        <time>2015-02-18T14:36:27Z</time>
      </trkpt>
      <trkpt lat="50.39807" lon="4.15332">
        <ele>179.3</ele>
        <time>2015-02-18T14:36:33Z</time>
      </trkpt>
      <trkpt lat="50.39811" lon="4.15342">
        <ele>178.9</ele>
        <time>2015-02-18T14:36:37Z</time>
      </trkpt>
      <trkpt lat="50.39818" lon="4.15349">
        <ele>178</ele>
        <time>2015-02-18T14:36:41Z</time>
      </trkpt>
      <trkpt lat="50.39824" lon="4.15358">
        <ele>177</ele>
        <time>2015-02-18T14:36:45Z</time>
      </trkpt>
      <trkpt lat="50.39829" lon="4.15369">
        <ele>175.9</ele>
        <time>2015-02-18T14:36:49Z</time>
      </trkpt>
      <trkpt lat="50.39835" lon="4.15379">
        <ele>174.8</ele>
        <time>2015-02-18T14:36:54Z</time>
      </trkpt>
      <trkpt lat="50.39838" lon="4.1539">
        <ele>173.7</ele>
        <time>2015-02-18T14:36:58Z</time>
      </trkpt>
      <trkpt lat="50.39842" lon="4.15402">
        <ele>172.7</ele>
        <time>2015-02-18T14:37:02Z</time>
      </trkpt>
      <trkpt lat="50.39845" lon="4.15412">
        <ele>172.3</ele>
        <time>2015-02-18T14:37:06Z</time>
      </trkpt>
      <trkpt lat="50.39849" lon="4.15422">
        <ele>171.6</ele>
        <time>2015-02-18T14:37:10Z</time>
      </trkpt>
      <trkpt lat="50.39854" lon="4.15433">
        <ele>170.3</ele>
        <time>2015-02-18T14:37:13Z</time>
      </trkpt>
      <trkpt lat="50.39858" lon="4.15445">
        <ele>169.5</ele>
        <time>2015-02-18T14:37:17Z</time>
      </trkpt>
      <trkpt lat="50.39864" lon="4.15454">
        <ele>168</ele>
        <time>2015-02-18T14:37:21Z</time>
      </trkpt>
      <trkpt lat="50.39868" lon="4.15465">
        <ele>165.2</ele>
        <time>2015-02-18T14:37:26Z</time>
      </trkpt>
      <trkpt lat="50.39873" lon="4.15474">
        <ele>163.8</ele>
        <time>2015-02-18T14:37:31Z</time>
      </trkpt>
      <trkpt lat="50.39874" lon="4.15487">
        <ele>164</ele>
        <time>2015-02-18T14:37:37Z</time>
      </trkpt>
      <trkpt lat="50.3988" lon="4.15495">
        <ele>164.1</ele>
        <time>2015-02-18T14:37:41Z</time>
      </trkpt>
      <trkpt lat="50.39884" lon="4.15506">
        <ele>163.2</ele>
        <time>2015-02-18T14:37:47Z</time>
      </trkpt>
      <trkpt lat="50.3989" lon="4.15515">
        <ele>162.5</ele>
        <time>2015-02-18T14:37:52Z</time>
      </trkpt>
      <trkpt lat="50.39893" lon="4.15527">
        <ele>161.5</ele>
        <time>2015-02-18T14:37:57Z</time>
      </trkpt>
      <trkpt lat="50.39896" lon="4.15536">
        <ele>160.5</ele>
        <time>2015-02-18T14:38:02Z</time>
      </trkpt>
      <trkpt lat="50.399" lon="4.15546">
        <ele>159.9</ele>
        <time>2015-02-18T14:38:08Z</time>
      </trkpt>
      <trkpt lat="50.39905" lon="4.15558">
        <ele>159</ele>
        <time>2015-02-18T14:38:12Z</time>
      </trkpt>
      <trkpt lat="50.39909" lon="4.15571">
        <ele>158.3</ele>
        <time>2015-02-18T14:38:16Z</time>
      </trkpt>
      <trkpt lat="50.39914" lon="4.15583">
        <ele>157.1</ele>
        <time>2015-02-18T14:38:20Z</time>
      </trkpt>
      <trkpt lat="50.39918" lon="4.15593">
        <ele>157</ele>
        <time>2015-02-18T14:38:25Z</time>
      </trkpt>
      <trkpt lat="50.39923" lon="4.15604">
        <ele>156</ele>
        <time>2015-02-18T14:38:30Z</time>
      </trkpt>
      <trkpt lat="50.39927" lon="4.15616">
        <ele>155.9</ele>
        <time>2015-02-18T14:38:36Z</time>
      </trkpt>
      <trkpt lat="50.39932" lon="4.15625">
        <ele>156</ele>
        <time>2015-02-18T14:38:42Z</time>
      </trkpt>
      <trkpt lat="50.39937" lon="4.15635">
        <ele>156.2</ele>
        <time>2015-02-18T14:38:47Z</time>
      </trkpt>
      <trkpt lat="50.39941" lon="4.15647">
        <ele>156.7</ele>
        <time>2015-02-18T14:38:54Z</time>
      </trkpt>
      <trkpt lat="50.39945" lon="4.15657">
        <ele>157.1</ele>
        <time>2015-02-18T14:39:00Z</time>
      </trkpt>
      <trkpt lat="50.39949" lon="4.15666">
        <ele>156.2</ele>
        <time>2015-02-18T14:39:03Z</time>
      </trkpt>
      <trkpt lat="50.39955" lon="4.15675">
        <ele>155.5</ele>
        <time>2015-02-18T14:39:08Z</time>
      </trkpt>
      <trkpt lat="50.3996" lon="4.15689">
        <ele>154.4</ele>
        <time>2015-02-18T14:39:14Z</time>
      </trkpt>
      <trkpt lat="50.39963" lon="4.15699">
        <ele>154.6</ele>
        <time>2015-02-18T14:39:19Z</time>
      </trkpt>
      <trkpt lat="50.39967" lon="4.15711">
        <ele>154.5</ele>
        <time>2015-02-18T14:39:25Z</time>
      </trkpt>
      <trkpt lat="50.39973" lon="4.15723">
        <ele>153.6</ele>
        <time>2015-02-18T14:39:30Z</time>
      </trkpt>
      <trkpt lat="50.39978" lon="4.1573">
        <ele>152</ele>
        <time>2015-02-18T14:39:34Z</time>
      </trkpt>
      <trkpt lat="50.39982" lon="4.15741">
        <ele>151.6</ele>
        <time>2015-02-18T14:39:40Z</time>
      </trkpt>
      <trkpt lat="50.39985" lon="4.15752">
        <ele>151.7</ele>
        <time>2015-02-18T14:39:46Z</time>
      </trkpt>
      <trkpt lat="50.3999" lon="4.15763">
        <ele>151.5</ele>
        <time>2015-02-18T14:39:53Z</time>
      </trkpt>
      <trkpt lat="50.39996" lon="4.1577">
        <ele>151.1</ele>
        <time>2015-02-18T14:39:59Z</time>
      </trkpt>
      <trkpt lat="50.40001" lon="4.1578">
        <ele>150.6</ele>
        <time>2015-02-18T14:40:04Z</time>
      </trkpt>
      <trkpt lat="50.40007" lon="4.15791">
        <ele>150</ele>
        <time>2015-02-18T14:40:10Z</time>
      </trkpt>
      <trkpt lat="50.40012" lon="4.15803">
        <ele>149.3</ele>
        <time>2015-02-18T14:40:16Z</time>
      </trkpt>
      <trkpt lat="50.40017" lon="4.15813">
        <ele>148.8</ele>
        <time>2015-02-18T14:40:21Z</time>
      </trkpt>
      <trkpt lat="50.40021" lon="4.15822">
        <ele>148.9</ele>
        <time>2015-02-18T14:40:27Z</time>
      </trkpt>
      <trkpt lat="50.40027" lon="4.15832">
        <ele>148.4</ele>
        <time>2015-02-18T14:40:32Z</time>
      </trkpt>
      <trkpt lat="50.40031" lon="4.15844">
        <ele>147.1</ele>
        <time>2015-02-18T14:40:36Z</time>
      </trkpt>
      <trkpt lat="50.40036" lon="4.15852">
        <ele>146.1</ele>
        <time>2015-02-18T14:40:40Z</time>
      </trkpt>
      <trkpt lat="50.40039" lon="4.15863">
        <ele>145.5</ele>
        <time>2015-02-18T14:40:46Z</time>
      </trkpt>
      <trkpt lat="50.40044" lon="4.15873">
        <ele>145.3</ele>
        <time>2015-02-18T14:40:52Z</time>
      </trkpt>
      <trkpt lat="50.40048" lon="4.15884">
        <ele>145.4</ele>
        <time>2015-02-18T14:40:57Z</time>
      </trkpt>
      <trkpt lat="50.40052" lon="4.15895">
        <ele>145.7</ele>
        <time>2015-02-18T14:41:02Z</time>
      </trkpt>
      <trkpt lat="50.40056" lon="4.15905">
        <ele>146</ele>
        <time>2015-02-18T14:41:07Z</time>
      </trkpt>
      <trkpt lat="50.40061" lon="4.15914">
        <ele>146.4</ele>
        <time>2015-02-18T14:41:13Z</time>
      </trkpt>
      <trkpt lat="50.40068" lon="4.15922">
        <ele>147.1</ele>
        <time>2015-02-18T14:41:20Z</time>
      </trkpt>
      <trkpt lat="50.40072" lon="4.15931">
        <ele>147.4</ele>
        <time>2015-02-18T14:41:27Z</time>
      </trkpt>
      <trkpt lat="50.40077" lon="4.1594">
        <ele>146.5</ele>
        <time>2015-02-18T14:41:33Z</time>
      </trkpt>
      <trkpt lat="50.40084" lon="4.15949">
        <ele>146.1</ele>
        <time>2015-02-18T14:41:39Z</time>
      </trkpt>
      <trkpt lat="50.4009" lon="4.15956">
        <ele>146.2</ele>
        <time>2015-02-18T14:41:44Z</time>
      </trkpt>
      <trkpt lat="50.40095" lon="4.15969">
        <ele>145.7</ele>
        <time>2015-02-18T14:41:50Z</time>
      </trkpt>
      <trkpt lat="50.40097" lon="4.1598">
        <ele>145.8</ele>
        <time>2015-02-18T14:41:55Z</time>
      </trkpt>
      <trkpt lat="50.40103" lon="4.1599">
        <ele>146.2</ele>
        <time>2015-02-18T14:42:01Z</time>
      </trkpt>
      <trkpt lat="50.40109" lon="4.15997">
        <ele>146.7</ele>
        <time>2015-02-18T14:42:06Z</time>
      </trkpt>
      <trkpt lat="50.40113" lon="4.16006">
        <ele>147.4</ele>
        <time>2015-02-18T14:42:13Z</time>
      </trkpt>
      <trkpt lat="50.40118" lon="4.16015">
        <ele>148.3</ele>
        <time>2015-02-18T14:42:19Z</time>
      </trkpt>
      <trkpt lat="50.4012" lon="4.16026">
        <ele>149.1</ele>
        <time>2015-02-18T14:42:24Z</time>
      </trkpt>
      <trkpt lat="50.40126" lon="4.16034">
        <ele>150.2</ele>
        <time>2015-02-18T14:42:29Z</time>
      </trkpt>
      <trkpt lat="50.40132" lon="4.16042">
        <ele>151.4</ele>
        <time>2015-02-18T14:42:35Z</time>
      </trkpt>
      <trkpt lat="50.40135" lon="4.16052">
        <ele>151.8</ele>
        <time>2015-02-18T14:42:39Z</time>
      </trkpt>
      <trkpt lat="50.40141" lon="4.16062">
        <ele>153.1</ele>
        <time>2015-02-18T14:42:45Z</time>
      </trkpt>
      <trkpt lat="50.40147" lon="4.1607">
        <ele>153.9</ele>
        <time>2015-02-18T14:42:50Z</time>
      </trkpt>
      <trkpt lat="50.40153" lon="4.16078">
        <ele>155.8</ele>
        <time>2015-02-18T14:42:56Z</time>
      </trkpt>
      <trkpt lat="50.40156" lon="4.16088">
        <ele>156.7</ele>
        <time>2015-02-18T14:43:00Z</time>
      </trkpt>
      <trkpt lat="50.40157" lon="4.161">
        <ele>157.5</ele>
        <time>2015-02-18T14:43:03Z</time>
      </trkpt>
      <trkpt lat="50.40161" lon="4.16111">
        <ele>158</ele>
        <time>2015-02-18T14:43:06Z</time>
      </trkpt>
      <trkpt lat="50.40164" lon="4.16122">
        <ele>159.7</ele>
        <time>2015-02-18T14:43:10Z</time>
      </trkpt>
      <trkpt lat="50.40169" lon="4.16131">
        <ele>162.3</ele>
        <time>2015-02-18T14:43:16Z</time>
      </trkpt>
      <trkpt lat="50.40174" lon="4.16138">
        <ele>164.4</ele>
        <time>2015-02-18T14:43:23Z</time>
      </trkpt>
      <trkpt lat="50.40175" lon="4.1615">
        <ele>165.7</ele>
        <time>2015-02-18T14:43:27Z</time>
      </trkpt>
      <trkpt lat="50.40178" lon="4.16161">
        <ele>166.5</ele>
        <time>2015-02-18T14:43:32Z</time>
      </trkpt>
      <trkpt lat="50.40181" lon="4.16173">
        <ele>166.3</ele>
        <time>2015-02-18T14:43:37Z</time>
      </trkpt>
      <trkpt lat="50.40187" lon="4.16181">
        <ele>165.5</ele>
        <time>2015-02-18T14:43:42Z</time>
      </trkpt>
      <trkpt lat="50.40193" lon="4.16191">
        <ele>165</ele>
        <time>2015-02-18T14:43:46Z</time>
      </trkpt>
      <trkpt lat="50.40199" lon="4.162">
        <ele>164.2</ele>
        <time>2015-02-18T14:43:50Z</time>
      </trkpt>
      <trkpt lat="50.40203" lon="4.16211">
        <ele>163.9</ele>
        <time>2015-02-18T14:43:54Z</time>
      </trkpt>
      <trkpt lat="50.40209" lon="4.16221">
        <ele>164</ele>
        <time>2015-02-18T14:43:59Z</time>
      </trkpt>
      <trkpt lat="50.40211" lon="4.16231">
        <ele>163.8</ele>
        <time>2015-02-18T14:44:05Z</time>
      </trkpt>
      <trkpt lat="50.40211" lon="4.16243">
        <ele>164</ele>
        <time>2015-02-18T14:44:08Z</time>
      </trkpt>
      <trkpt lat="50.40215" lon="4.16253">
        <ele>165.4</ele>
        <time>2015-02-18T14:44:13Z</time>
      </trkpt>
      <trkpt lat="50.4022" lon="4.16259">
        <ele>167.7</ele>
        <time>2015-02-18T14:44:20Z</time>
      </trkpt>
      <trkpt lat="50.40221" lon="4.16272">
        <ele>168.7</ele>
        <time>2015-02-18T14:44:24Z</time>
      </trkpt>
      <trkpt lat="50.40226" lon="4.1628">
        <ele>169.9</ele>
        <time>2015-02-18T14:44:28Z</time>
      </trkpt>
      <trkpt lat="50.40232" lon="4.1629">
        <ele>170.5</ele>
        <time>2015-02-18T14:44:32Z</time>
      </trkpt>
      <trkpt lat="50.40238" lon="4.16299">
        <ele>169.5</ele>
        <time>2015-02-18T14:44:36Z</time>
      </trkpt>
      <trkpt lat="50.40242" lon="4.16311">
        <ele>168.6</ele>
        <time>2015-02-18T14:44:41Z</time>
      </trkpt>
      <trkpt lat="50.40248" lon="4.16319">
        <ele>168.1</ele>
        <time>2015-02-18T14:44:46Z</time>
      </trkpt>
      <trkpt lat="50.40252" lon="4.16331">
        <ele>168.2</ele>
        <time>2015-02-18T14:44:51Z</time>
      </trkpt>
      <trkpt lat="50.40257" lon="4.16343">
        <ele>169.1</ele>
        <time>2015-02-18T14:44:57Z</time>
      </trkpt>
      <trkpt lat="50.40261" lon="4.16353">
        <ele>168.9</ele>
        <time>2015-02-18T14:45:02Z</time>
      </trkpt>
      <trkpt lat="50.40264" lon="4.16364">
        <ele>169.8</ele>
        <time>2015-02-18T14:45:07Z</time>
      </trkpt>
      <trkpt lat="50.40268" lon="4.16374">
        <ele>170.1</ele>
        <time>2015-02-18T14:45:11Z</time>
      </trkpt>
      <trkpt lat="50.4027" lon="4.16386">
        <ele>169.2</ele>
        <time>2015-02-18T14:45:15Z</time>
      </trkpt>
      <trkpt lat="50.40272" lon="4.16397">
        <ele>168.5</ele>
        <time>2015-02-18T14:45:18Z</time>
      </trkpt>
      <trkpt lat="50.40277" lon="4.16408">
        <ele>167.2</ele>
        <time>2015-02-18T14:45:22Z</time>
      </trkpt>
      <trkpt lat="50.40281" lon="4.16419">
        <ele>166.2</ele>
        <time>2015-02-18T14:45:26Z</time>
      </trkpt>
      <trkpt lat="50.40286" lon="4.1643">
        <ele>164.7</ele>
        <time>2015-02-18T14:45:31Z</time>
      </trkpt>
      <trkpt lat="50.4029" lon="4.16441">
        <ele>163.5</ele>
        <time>2015-02-18T14:45:37Z</time>
      </trkpt>
      <trkpt lat="50.40297" lon="4.16447">
        <ele>162.4</ele>
        <time>2015-02-18T14:45:43Z</time>
      </trkpt>
      <trkpt lat="50.40301" lon="4.16456">
        <ele>163.4</ele>
        <time>2015-02-18T14:45:50Z</time>
      </trkpt>
      <trkpt lat="50.40303" lon="4.1647">
        <ele>162.7</ele>
        <time>2015-02-18T14:45:56Z</time>
      </trkpt>
      <trkpt lat="50.4031" lon="4.16478">
        <ele>158.8</ele>
        <time>2015-02-18T14:46:00Z</time>
      </trkpt>
      <trkpt lat="50.40316" lon="4.16487">
        <ele>156.2</ele>
        <time>2015-02-18T14:46:05Z</time>
      </trkpt>
      <trkpt lat="50.40317" lon="4.16493">
        <ele>154</ele>
        <time>2015-02-18T14:46:12Z</time>
      </trkpt>
    </trkseg>
  </trk>
</gpx>